<?xml version="1.0" encoding="UTF-8" standalone="no" ?>
<gpx xmlns="http://www.topografix.com/GPX/1/1" xmlns:xsi="http://www.w3.org/2001/XMLSchema-instance" xsi:schemaLocation="http://www.topografix.com/GPX/1/1 http://www.topografix.com/GPX/1/1/gpx.xsd" version="1.1" creator="VisuGPX - https://www.visugpx.com">
  <metadata>
    <name>Gr20 étape 12</name>
    <desc><![CDATA[De Asinao au col de Bavella]]></desc>
  </metadata>
  <trk>
    <name><![CDATA[2015-09-15 13:40:35]]></name>
    <trkseg>
      <trkpt lat="41.8416" lon="9.21421">
        <ele>1518.54</ele>
        <time>2015-09-15T06:06:52Z</time>
      </trkpt>
      <trkpt lat="41.84164" lon="9.21422">
        <ele>1518.06</ele>
        <time>2015-09-15T06:07:26Z</time>
      </trkpt>
      <trkpt lat="41.84162" lon="9.21427">
        <ele>1521.9</ele>
        <time>2015-09-15T06:07:31Z</time>
      </trkpt>
      <trkpt lat="41.84162" lon="9.21428">
        <ele>1522.39</ele>
        <time>2015-09-15T06:07:32Z</time>
      </trkpt>
      <trkpt lat="41.84161" lon="9.21434">
        <ele>1525.75</ele>
        <time>2015-09-15T06:07:38Z</time>
      </trkpt>
      <trkpt lat="41.8416" lon="9.21439">
        <ele>1527.67</ele>
        <time>2015-09-15T06:07:43Z</time>
      </trkpt>
      <trkpt lat="41.84158" lon="9.21445">
        <ele>1530.56</ele>
        <time>2015-09-15T06:07:55Z</time>
      </trkpt>
      <trkpt lat="41.84153" lon="9.21453">
        <ele>1533.92</ele>
        <time>2015-09-15T06:08:10Z</time>
      </trkpt>
      <trkpt lat="41.84149" lon="9.2146">
        <ele>1534.4</ele>
        <time>2015-09-15T06:08:25Z</time>
      </trkpt>
      <trkpt lat="41.84141" lon="9.21455">
        <ele>1533.92</ele>
        <time>2015-09-15T06:08:39Z</time>
      </trkpt>
      <trkpt lat="41.84141" lon="9.21447">
        <ele>1536.32</ele>
        <time>2015-09-15T06:08:54Z</time>
      </trkpt>
      <trkpt lat="41.84139" lon="9.21437">
        <ele>1538.73</ele>
        <time>2015-09-15T06:09:16Z</time>
      </trkpt>
      <trkpt lat="41.84142" lon="9.21425">
        <ele>1538.73</ele>
        <time>2015-09-15T06:09:31Z</time>
      </trkpt>
      <trkpt lat="41.84149" lon="9.21416">
        <ele>1539.21</ele>
        <time>2015-09-15T06:09:48Z</time>
      </trkpt>
      <trkpt lat="41.84152" lon="9.21401">
        <ele>1538.25</ele>
        <time>2015-09-15T06:10:05Z</time>
      </trkpt>
      <trkpt lat="41.84151" lon="9.214">
        <ele>1538.25</ele>
        <time>2015-09-15T06:10:06Z</time>
      </trkpt>
      <trkpt lat="41.84146" lon="9.21391">
        <ele>1535.84</ele>
        <time>2015-09-15T06:10:27Z</time>
      </trkpt>
      <trkpt lat="41.84145" lon="9.2137">
        <ele>1535.36</ele>
        <time>2015-09-15T06:10:45Z</time>
      </trkpt>
      <trkpt lat="41.84143" lon="9.21361">
        <ele>1532.96</ele>
        <time>2015-09-15T06:11:01Z</time>
      </trkpt>
      <trkpt lat="41.84139" lon="9.21348">
        <ele>1532.48</ele>
        <time>2015-09-15T06:11:17Z</time>
      </trkpt>
      <trkpt lat="41.84133" lon="9.2134">
        <ele>1532.48</ele>
        <time>2015-09-15T06:11:33Z</time>
      </trkpt>
      <trkpt lat="41.84123" lon="9.2133">
        <ele>1533.44</ele>
        <time>2015-09-15T06:11:53Z</time>
      </trkpt>
      <trkpt lat="41.8412" lon="9.21328">
        <ele>1532</ele>
        <time>2015-09-15T06:11:57Z</time>
      </trkpt>
      <trkpt lat="41.84114" lon="9.21319">
        <ele>1532</ele>
        <time>2015-09-15T06:12:13Z</time>
      </trkpt>
      <trkpt lat="41.84115" lon="9.21313">
        <ele>1533.44</ele>
        <time>2015-09-15T06:12:22Z</time>
      </trkpt>
      <trkpt lat="41.84108" lon="9.21302">
        <ele>1533.44</ele>
        <time>2015-09-15T06:12:42Z</time>
      </trkpt>
      <trkpt lat="41.84104" lon="9.21294">
        <ele>1532</ele>
        <time>2015-09-15T06:12:56Z</time>
      </trkpt>
      <trkpt lat="41.84096" lon="9.2129">
        <ele>1530.56</ele>
        <time>2015-09-15T06:13:13Z</time>
      </trkpt>
      <trkpt lat="41.84089" lon="9.21293">
        <ele>1529.11</ele>
        <time>2015-09-15T06:13:32Z</time>
      </trkpt>
      <trkpt lat="41.84083" lon="9.21292">
        <ele>1527.67</ele>
        <time>2015-09-15T06:13:48Z</time>
      </trkpt>
      <trkpt lat="41.84075" lon="9.21292">
        <ele>1527.67</ele>
        <time>2015-09-15T06:14:02Z</time>
      </trkpt>
      <trkpt lat="41.84067" lon="9.2129">
        <ele>1529.11</ele>
        <time>2015-09-15T06:14:17Z</time>
      </trkpt>
      <trkpt lat="41.84059" lon="9.21293">
        <ele>1530.08</ele>
        <time>2015-09-15T06:14:33Z</time>
      </trkpt>
      <trkpt lat="41.84053" lon="9.21287">
        <ele>1532.48</ele>
        <time>2015-09-15T06:14:48Z</time>
      </trkpt>
      <trkpt lat="41.84045" lon="9.21279">
        <ele>1532.48</ele>
        <time>2015-09-15T06:15:01Z</time>
      </trkpt>
      <trkpt lat="41.8404" lon="9.21275">
        <ele>1531.04</ele>
        <time>2015-09-15T06:15:10Z</time>
      </trkpt>
      <trkpt lat="41.84038" lon="9.21273">
        <ele>1532</ele>
        <time>2015-09-15T06:15:16Z</time>
      </trkpt>
      <trkpt lat="41.84032" lon="9.21259">
        <ele>1532</ele>
        <time>2015-09-15T06:15:31Z</time>
      </trkpt>
      <trkpt lat="41.84032" lon="9.21258">
        <ele>1530.56</ele>
        <time>2015-09-15T06:15:33Z</time>
      </trkpt>
      <trkpt lat="41.84033" lon="9.21248">
        <ele>1528.63</ele>
        <time>2015-09-15T06:15:48Z</time>
      </trkpt>
      <trkpt lat="41.84034" lon="9.21236">
        <ele>1527.19</ele>
        <time>2015-09-15T06:16:08Z</time>
      </trkpt>
      <trkpt lat="41.8403" lon="9.2123">
        <ele>1527.67</ele>
        <time>2015-09-15T06:16:24Z</time>
      </trkpt>
      <trkpt lat="41.84019" lon="9.21222">
        <ele>1527.67</ele>
        <time>2015-09-15T06:16:41Z</time>
      </trkpt>
      <trkpt lat="41.84006" lon="9.2121">
        <ele>1527.67</ele>
        <time>2015-09-15T06:16:58Z</time>
      </trkpt>
      <trkpt lat="41.84001" lon="9.21203">
        <ele>1526.71</ele>
        <time>2015-09-15T06:17:17Z</time>
      </trkpt>
      <trkpt lat="41.84001" lon="9.21204">
        <ele>1526.23</ele>
        <time>2015-09-15T06:17:40Z</time>
      </trkpt>
      <trkpt lat="41.84" lon="9.21201">
        <ele>1526.23</ele>
        <time>2015-09-15T06:17:43Z</time>
      </trkpt>
      <trkpt lat="41.83993" lon="9.21179">
        <ele>1525.75</ele>
        <time>2015-09-15T06:18:02Z</time>
      </trkpt>
      <trkpt lat="41.83979" lon="9.21171">
        <ele>1522.39</ele>
        <time>2015-09-15T06:18:19Z</time>
      </trkpt>
      <trkpt lat="41.83967" lon="9.21167">
        <ele>1519.5</ele>
        <time>2015-09-15T06:18:34Z</time>
      </trkpt>
      <trkpt lat="41.83958" lon="9.21174">
        <ele>1517.58</ele>
        <time>2015-09-15T06:18:50Z</time>
      </trkpt>
      <trkpt lat="41.83946" lon="9.21171">
        <ele>1514.21</ele>
        <time>2015-09-15T06:19:08Z</time>
      </trkpt>
      <trkpt lat="41.83936" lon="9.2117">
        <ele>1511.33</ele>
        <time>2015-09-15T06:19:25Z</time>
      </trkpt>
      <trkpt lat="41.83925" lon="9.21166">
        <ele>1508.45</ele>
        <time>2015-09-15T06:19:42Z</time>
      </trkpt>
      <trkpt lat="41.83918" lon="9.21171">
        <ele>1506.04</ele>
        <time>2015-09-15T06:19:59Z</time>
      </trkpt>
      <trkpt lat="41.83913" lon="9.21176">
        <ele>1503.16</ele>
        <time>2015-09-15T06:20:14Z</time>
      </trkpt>
      <trkpt lat="41.83907" lon="9.21183">
        <ele>1500.76</ele>
        <time>2015-09-15T06:20:35Z</time>
      </trkpt>
      <trkpt lat="41.83902" lon="9.21184">
        <ele>1496.91</ele>
        <time>2015-09-15T06:20:50Z</time>
      </trkpt>
      <trkpt lat="41.839" lon="9.21186">
        <ele>1495.95</ele>
        <time>2015-09-15T06:20:58Z</time>
      </trkpt>
      <trkpt lat="41.83895" lon="9.21179">
        <ele>1494.51</ele>
        <time>2015-09-15T06:21:16Z</time>
      </trkpt>
      <trkpt lat="41.83887" lon="9.21178">
        <ele>1491.62</ele>
        <time>2015-09-15T06:21:33Z</time>
      </trkpt>
      <trkpt lat="41.83882" lon="9.21174">
        <ele>1490.18</ele>
        <time>2015-09-15T06:21:50Z</time>
      </trkpt>
      <trkpt lat="41.83877" lon="9.21178">
        <ele>1488.26</ele>
        <time>2015-09-15T06:22:09Z</time>
      </trkpt>
      <trkpt lat="41.83872" lon="9.21177">
        <ele>1486.34</ele>
        <time>2015-09-15T06:22:29Z</time>
      </trkpt>
      <trkpt lat="41.83862" lon="9.21173">
        <ele>1483.93</ele>
        <time>2015-09-15T06:22:49Z</time>
      </trkpt>
      <trkpt lat="41.83854" lon="9.21175">
        <ele>1480.57</ele>
        <time>2015-09-15T06:23:03Z</time>
      </trkpt>
      <trkpt lat="41.83852" lon="9.21175">
        <ele>1481.05</ele>
        <time>2015-09-15T06:23:08Z</time>
      </trkpt>
      <trkpt lat="41.83845" lon="9.21176">
        <ele>1478.16</ele>
        <time>2015-09-15T06:23:27Z</time>
      </trkpt>
      <trkpt lat="41.83837" lon="9.21174">
        <ele>1475.76</ele>
        <time>2015-09-15T06:23:44Z</time>
      </trkpt>
      <trkpt lat="41.83829" lon="9.21173">
        <ele>1472.4</ele>
        <time>2015-09-15T06:23:56Z</time>
      </trkpt>
      <trkpt lat="41.83821" lon="9.21172">
        <ele>1469.51</ele>
        <time>2015-09-15T06:24:16Z</time>
      </trkpt>
      <trkpt lat="41.83814" lon="9.21179">
        <ele>1466.15</ele>
        <time>2015-09-15T06:24:30Z</time>
      </trkpt>
      <trkpt lat="41.83807" lon="9.21182">
        <ele>1463.74</ele>
        <time>2015-09-15T06:24:47Z</time>
      </trkpt>
      <trkpt lat="41.83802" lon="9.21194">
        <ele>1460.86</ele>
        <time>2015-09-15T06:25:07Z</time>
      </trkpt>
      <trkpt lat="41.83796" lon="9.21199">
        <ele>1458.46</ele>
        <time>2015-09-15T06:25:23Z</time>
      </trkpt>
      <trkpt lat="41.83792" lon="9.21189">
        <ele>1455.57</ele>
        <time>2015-09-15T06:25:38Z</time>
      </trkpt>
      <trkpt lat="41.83793" lon="9.21191">
        <ele>1455.57</ele>
        <time>2015-09-15T06:26:01Z</time>
      </trkpt>
      <trkpt lat="41.83793" lon="9.21188">
        <ele>1455.09</ele>
        <time>2015-09-15T06:26:33Z</time>
      </trkpt>
      <trkpt lat="41.8379" lon="9.21186">
        <ele>1455.09</ele>
        <time>2015-09-15T06:27:08Z</time>
      </trkpt>
      <trkpt lat="41.83778" lon="9.21182">
        <ele>1454.13</ele>
        <time>2015-09-15T06:27:23Z</time>
      </trkpt>
      <trkpt lat="41.83767" lon="9.21178">
        <ele>1451.73</ele>
        <time>2015-09-15T06:27:41Z</time>
      </trkpt>
      <trkpt lat="41.83762" lon="9.21179">
        <ele>1449.81</ele>
        <time>2015-09-15T06:27:55Z</time>
      </trkpt>
      <trkpt lat="41.83757" lon="9.21179">
        <ele>1447.88</ele>
        <time>2015-09-15T06:28:11Z</time>
      </trkpt>
      <trkpt lat="41.83751" lon="9.21187">
        <ele>1444.52</ele>
        <time>2015-09-15T06:28:26Z</time>
      </trkpt>
      <trkpt lat="41.83745" lon="9.21193">
        <ele>1441.63</ele>
        <time>2015-09-15T06:28:44Z</time>
      </trkpt>
      <trkpt lat="41.83741" lon="9.21199">
        <ele>1438.75</ele>
        <time>2015-09-15T06:28:59Z</time>
      </trkpt>
      <trkpt lat="41.83742" lon="9.21207">
        <ele>1436.35</ele>
        <time>2015-09-15T06:29:16Z</time>
      </trkpt>
      <trkpt lat="41.83741" lon="9.21214">
        <ele>1433.46</ele>
        <time>2015-09-15T06:29:32Z</time>
      </trkpt>
      <trkpt lat="41.83742" lon="9.21227">
        <ele>1431.06</ele>
        <time>2015-09-15T06:29:47Z</time>
      </trkpt>
      <trkpt lat="41.83743" lon="9.21231">
        <ele>1430.58</ele>
        <time>2015-09-15T06:29:51Z</time>
      </trkpt>
      <trkpt lat="41.83743" lon="9.21234">
        <ele>1430.1</ele>
        <time>2015-09-15T06:29:53Z</time>
      </trkpt>
      <trkpt lat="41.83743" lon="9.2125">
        <ele>1429.62</ele>
        <time>2015-09-15T06:30:10Z</time>
      </trkpt>
      <trkpt lat="41.83744" lon="9.21263">
        <ele>1428.66</ele>
        <time>2015-09-15T06:30:26Z</time>
      </trkpt>
      <trkpt lat="41.83738" lon="9.2127">
        <ele>1427.7</ele>
        <time>2015-09-15T06:30:39Z</time>
      </trkpt>
      <trkpt lat="41.83731" lon="9.21282">
        <ele>1425.77</ele>
        <time>2015-09-15T06:30:55Z</time>
      </trkpt>
      <trkpt lat="41.83726" lon="9.21291">
        <ele>1423.85</ele>
        <time>2015-09-15T06:31:11Z</time>
      </trkpt>
      <trkpt lat="41.83718" lon="9.21298">
        <ele>1420.97</ele>
        <time>2015-09-15T06:31:26Z</time>
      </trkpt>
      <trkpt lat="41.83706" lon="9.21305">
        <ele>1418.08</ele>
        <time>2015-09-15T06:31:42Z</time>
      </trkpt>
      <trkpt lat="41.83698" lon="9.21308">
        <ele>1415.68</ele>
        <time>2015-09-15T06:31:58Z</time>
      </trkpt>
      <trkpt lat="41.83693" lon="9.21316">
        <ele>1412.79</ele>
        <time>2015-09-15T06:32:15Z</time>
      </trkpt>
      <trkpt lat="41.83685" lon="9.21323">
        <ele>1409.91</ele>
        <time>2015-09-15T06:32:33Z</time>
      </trkpt>
      <trkpt lat="41.8368" lon="9.21335">
        <ele>1407.99</ele>
        <time>2015-09-15T06:32:51Z</time>
      </trkpt>
      <trkpt lat="41.83671" lon="9.21343">
        <ele>1405.58</ele>
        <time>2015-09-15T06:33:11Z</time>
      </trkpt>
      <trkpt lat="41.8366" lon="9.21341">
        <ele>1403.18</ele>
        <time>2015-09-15T06:33:31Z</time>
      </trkpt>
      <trkpt lat="41.83654" lon="9.21346">
        <ele>1400.3</ele>
        <time>2015-09-15T06:33:50Z</time>
      </trkpt>
      <trkpt lat="41.83646" lon="9.21356">
        <ele>1397.41</ele>
        <time>2015-09-15T06:34:11Z</time>
      </trkpt>
      <trkpt lat="41.83644" lon="9.21361">
        <ele>1395.01</ele>
        <time>2015-09-15T06:34:27Z</time>
      </trkpt>
      <trkpt lat="41.83636" lon="9.21361">
        <ele>1392.13</ele>
        <time>2015-09-15T06:34:41Z</time>
      </trkpt>
      <trkpt lat="41.83628" lon="9.21359">
        <ele>1389.72</ele>
        <time>2015-09-15T06:35:01Z</time>
      </trkpt>
      <trkpt lat="41.83619" lon="9.21363">
        <ele>1386.84</ele>
        <time>2015-09-15T06:35:18Z</time>
      </trkpt>
      <trkpt lat="41.83612" lon="9.2137">
        <ele>1383.47</ele>
        <time>2015-09-15T06:35:37Z</time>
      </trkpt>
      <trkpt lat="41.83602" lon="9.21371">
        <ele>1380.11</ele>
        <time>2015-09-15T06:35:55Z</time>
      </trkpt>
      <trkpt lat="41.83593" lon="9.21374">
        <ele>1377.23</ele>
        <time>2015-09-15T06:36:14Z</time>
      </trkpt>
      <trkpt lat="41.83582" lon="9.21375">
        <ele>1373.86</ele>
        <time>2015-09-15T06:36:37Z</time>
      </trkpt>
      <trkpt lat="41.83568" lon="9.21377">
        <ele>1370.98</ele>
        <time>2015-09-15T06:37:01Z</time>
      </trkpt>
      <trkpt lat="41.83558" lon="9.21379">
        <ele>1368.57</ele>
        <time>2015-09-15T06:37:21Z</time>
      </trkpt>
      <trkpt lat="41.83547" lon="9.21385">
        <ele>1365.69</ele>
        <time>2015-09-15T06:37:42Z</time>
      </trkpt>
      <trkpt lat="41.83535" lon="9.21387">
        <ele>1362.81</ele>
        <time>2015-09-15T06:38:00Z</time>
      </trkpt>
      <trkpt lat="41.83525" lon="9.2139">
        <ele>1359.92</ele>
        <time>2015-09-15T06:38:19Z</time>
      </trkpt>
      <trkpt lat="41.83517" lon="9.21389">
        <ele>1358.48</ele>
        <time>2015-09-15T06:38:35Z</time>
      </trkpt>
      <trkpt lat="41.83511" lon="9.21386">
        <ele>1356.08</ele>
        <time>2015-09-15T06:38:53Z</time>
      </trkpt>
      <trkpt lat="41.83499" lon="9.21381">
        <ele>1353.19</ele>
        <time>2015-09-15T06:39:14Z</time>
      </trkpt>
      <trkpt lat="41.8349" lon="9.21378">
        <ele>1350.79</ele>
        <time>2015-09-15T06:39:31Z</time>
      </trkpt>
      <trkpt lat="41.83483" lon="9.21381">
        <ele>1348.39</ele>
        <time>2015-09-15T06:39:50Z</time>
      </trkpt>
      <trkpt lat="41.83479" lon="9.21394">
        <ele>1346.94</ele>
        <time>2015-09-15T06:40:09Z</time>
      </trkpt>
      <trkpt lat="41.83475" lon="9.21404">
        <ele>1344.54</ele>
        <time>2015-09-15T06:40:28Z</time>
      </trkpt>
      <trkpt lat="41.83468" lon="9.21401">
        <ele>1342.14</ele>
        <time>2015-09-15T06:40:49Z</time>
      </trkpt>
      <trkpt lat="41.83459" lon="9.21401">
        <ele>1339.73</ele>
        <time>2015-09-15T06:41:07Z</time>
      </trkpt>
      <trkpt lat="41.83458" lon="9.21415">
        <ele>1337.81</ele>
        <time>2015-09-15T06:41:26Z</time>
      </trkpt>
      <trkpt lat="41.83472" lon="9.21427">
        <ele>1334.93</ele>
        <time>2015-09-15T06:41:44Z</time>
      </trkpt>
      <trkpt lat="41.8348" lon="9.21434">
        <ele>1333.97</ele>
        <time>2015-09-15T06:42:01Z</time>
      </trkpt>
      <trkpt lat="41.83476" lon="9.21435">
        <ele>1333.49</ele>
        <time>2015-09-15T06:42:19Z</time>
      </trkpt>
      <trkpt lat="41.83473" lon="9.21444">
        <ele>1335.41</ele>
        <time>2015-09-15T06:42:41Z</time>
      </trkpt>
      <trkpt lat="41.83469" lon="9.21443">
        <ele>1334.45</ele>
        <time>2015-09-15T06:43:04Z</time>
      </trkpt>
      <trkpt lat="41.83461" lon="9.21447">
        <ele>1333.49</ele>
        <time>2015-09-15T06:43:25Z</time>
      </trkpt>
      <trkpt lat="41.83452" lon="9.21452">
        <ele>1333.49</ele>
        <time>2015-09-15T06:43:43Z</time>
      </trkpt>
      <trkpt lat="41.83441" lon="9.21458">
        <ele>1334.93</ele>
        <time>2015-09-15T06:43:59Z</time>
      </trkpt>
      <trkpt lat="41.83426" lon="9.21459">
        <ele>1335.41</ele>
        <time>2015-09-15T06:44:17Z</time>
      </trkpt>
      <trkpt lat="41.83424" lon="9.21461">
        <ele>1334.93</ele>
        <time>2015-09-15T06:44:30Z</time>
      </trkpt>
      <trkpt lat="41.8341" lon="9.21451">
        <ele>1334.93</ele>
        <time>2015-09-15T06:44:50Z</time>
      </trkpt>
      <trkpt lat="41.83397" lon="9.2145">
        <ele>1336.85</ele>
        <time>2015-09-15T06:45:08Z</time>
      </trkpt>
      <trkpt lat="41.83388" lon="9.21456">
        <ele>1336.85</ele>
        <time>2015-09-15T06:45:28Z</time>
      </trkpt>
      <trkpt lat="41.83378" lon="9.21455">
        <ele>1336.85</ele>
        <time>2015-09-15T06:45:46Z</time>
      </trkpt>
      <trkpt lat="41.83377" lon="9.21455">
        <ele>1335.41</ele>
        <time>2015-09-15T06:45:48Z</time>
      </trkpt>
      <trkpt lat="41.83362" lon="9.21452">
        <ele>1334.45</ele>
        <time>2015-09-15T06:46:06Z</time>
      </trkpt>
      <trkpt lat="41.83358" lon="9.21443">
        <ele>1333.49</ele>
        <time>2015-09-15T06:46:23Z</time>
      </trkpt>
      <trkpt lat="41.83348" lon="9.21435">
        <ele>1332.52</ele>
        <time>2015-09-15T06:46:42Z</time>
      </trkpt>
      <trkpt lat="41.83346" lon="9.21431">
        <ele>1329.64</ele>
        <time>2015-09-15T06:46:55Z</time>
      </trkpt>
      <trkpt lat="41.83338" lon="9.21423">
        <ele>1329.16</ele>
        <time>2015-09-15T06:47:11Z</time>
      </trkpt>
      <trkpt lat="41.83331" lon="9.21418">
        <ele>1329.16</ele>
        <time>2015-09-15T06:47:31Z</time>
      </trkpt>
      <trkpt lat="41.83319" lon="9.21411">
        <ele>1330.6</ele>
        <time>2015-09-15T06:47:48Z</time>
      </trkpt>
      <trkpt lat="41.83307" lon="9.21409">
        <ele>1331.08</ele>
        <time>2015-09-15T06:48:10Z</time>
      </trkpt>
      <trkpt lat="41.83298" lon="9.21413">
        <ele>1332.52</ele>
        <time>2015-09-15T06:48:31Z</time>
      </trkpt>
      <trkpt lat="41.83293" lon="9.2141">
        <ele>1331.08</ele>
        <time>2015-09-15T06:48:38Z</time>
      </trkpt>
      <trkpt lat="41.83279" lon="9.21403">
        <ele>1329.64</ele>
        <time>2015-09-15T06:49:01Z</time>
      </trkpt>
      <trkpt lat="41.83266" lon="9.21392">
        <ele>1329.16</ele>
        <time>2015-09-15T06:49:22Z</time>
      </trkpt>
      <trkpt lat="41.83264" lon="9.21381">
        <ele>1326.28</ele>
        <time>2015-09-15T06:49:47Z</time>
      </trkpt>
      <trkpt lat="41.83263" lon="9.2137">
        <ele>1322.91</ele>
        <time>2015-09-15T06:50:02Z</time>
      </trkpt>
      <trkpt lat="41.83253" lon="9.21351">
        <ele>1320.03</ele>
        <time>2015-09-15T06:50:25Z</time>
      </trkpt>
      <trkpt lat="41.83244" lon="9.21326">
        <ele>1318.1</ele>
        <time>2015-09-15T06:50:44Z</time>
      </trkpt>
      <trkpt lat="41.83238" lon="9.21317">
        <ele>1317.62</ele>
        <time>2015-09-15T06:51:02Z</time>
      </trkpt>
      <trkpt lat="41.83225" lon="9.21319">
        <ele>1320.51</ele>
        <time>2015-09-15T06:51:23Z</time>
      </trkpt>
      <trkpt lat="41.83215" lon="9.21323">
        <ele>1322.43</ele>
        <time>2015-09-15T06:51:41Z</time>
      </trkpt>
      <trkpt lat="41.83206" lon="9.21312">
        <ele>1322.91</ele>
        <time>2015-09-15T06:52:05Z</time>
      </trkpt>
      <trkpt lat="41.83202" lon="9.21312">
        <ele>1324.83</ele>
        <time>2015-09-15T06:52:22Z</time>
      </trkpt>
      <trkpt lat="41.83194" lon="9.21313">
        <ele>1326.28</ele>
        <time>2015-09-15T06:52:42Z</time>
      </trkpt>
      <trkpt lat="41.83177" lon="9.21311">
        <ele>1328.2</ele>
        <time>2015-09-15T06:53:06Z</time>
      </trkpt>
      <trkpt lat="41.83163" lon="9.21315">
        <ele>1329.64</ele>
        <time>2015-09-15T06:53:28Z</time>
      </trkpt>
      <trkpt lat="41.83151" lon="9.21314">
        <ele>1329.16</ele>
        <time>2015-09-15T06:53:50Z</time>
      </trkpt>
      <trkpt lat="41.83147" lon="9.21313">
        <ele>1330.12</ele>
        <time>2015-09-15T06:54:00Z</time>
      </trkpt>
      <trkpt lat="41.83143" lon="9.21319">
        <ele>1332.04</ele>
        <time>2015-09-15T06:54:18Z</time>
      </trkpt>
      <trkpt lat="41.83138" lon="9.21315">
        <ele>1333.97</ele>
        <time>2015-09-15T06:54:34Z</time>
      </trkpt>
      <trkpt lat="41.83133" lon="9.21309">
        <ele>1334.93</ele>
        <time>2015-09-15T06:54:47Z</time>
      </trkpt>
      <trkpt lat="41.83123" lon="9.21309">
        <ele>1335.89</ele>
        <time>2015-09-15T06:55:03Z</time>
      </trkpt>
      <trkpt lat="41.83113" lon="9.21303">
        <ele>1335.89</ele>
        <time>2015-09-15T06:55:23Z</time>
      </trkpt>
      <trkpt lat="41.83108" lon="9.21299">
        <ele>1336.85</ele>
        <time>2015-09-15T06:55:42Z</time>
      </trkpt>
      <trkpt lat="41.83102" lon="9.21289">
        <ele>1339.25</ele>
        <time>2015-09-15T06:55:59Z</time>
      </trkpt>
      <trkpt lat="41.83103" lon="9.2128">
        <ele>1340.22</ele>
        <time>2015-09-15T06:56:14Z</time>
      </trkpt>
      <trkpt lat="41.83105" lon="9.21282">
        <ele>1340.22</ele>
        <time>2015-09-15T06:56:36Z</time>
      </trkpt>
      <trkpt lat="41.83099" lon="9.21284">
        <ele>1340.22</ele>
        <time>2015-09-15T06:56:59Z</time>
      </trkpt>
      <trkpt lat="41.83106" lon="9.21284">
        <ele>1340.22</ele>
        <time>2015-09-15T06:57:26Z</time>
      </trkpt>
      <trkpt lat="41.831" lon="9.21286">
        <ele>1340.22</ele>
        <time>2015-09-15T06:57:47Z</time>
      </trkpt>
      <trkpt lat="41.83102" lon="9.21285">
        <ele>1338.77</ele>
        <time>2015-09-15T06:57:49Z</time>
      </trkpt>
      <trkpt lat="41.83099" lon="9.21285">
        <ele>1338.29</ele>
        <time>2015-09-15T06:58:08Z</time>
      </trkpt>
      <trkpt lat="41.83099" lon="9.21285">
        <ele>1340.22</ele>
        <time>2015-09-15T06:58:43Z</time>
      </trkpt>
      <trkpt lat="41.83102" lon="9.21285">
        <ele>1340.22</ele>
        <time>2015-09-15T06:58:56Z</time>
      </trkpt>
      <trkpt lat="41.83104" lon="9.21282">
        <ele>1340.22</ele>
        <time>2015-09-15T06:59:16Z</time>
      </trkpt>
      <trkpt lat="41.83104" lon="9.21283">
        <ele>1340.22</ele>
        <time>2015-09-15T06:59:38Z</time>
      </trkpt>
      <trkpt lat="41.83105" lon="9.21277">
        <ele>1340.7</ele>
        <time>2015-09-15T07:00:04Z</time>
      </trkpt>
      <trkpt lat="41.83102" lon="9.21277">
        <ele>1341.18</ele>
        <time>2015-09-15T07:00:31Z</time>
      </trkpt>
      <trkpt lat="41.83098" lon="9.21276">
        <ele>1341.18</ele>
        <time>2015-09-15T07:00:38Z</time>
      </trkpt>
      <trkpt lat="41.83096" lon="9.21277">
        <ele>1341.18</ele>
        <time>2015-09-15T07:00:40Z</time>
      </trkpt>
      <trkpt lat="41.83088" lon="9.21268">
        <ele>1341.18</ele>
        <time>2015-09-15T07:00:52Z</time>
      </trkpt>
      <trkpt lat="41.83071" lon="9.21253">
        <ele>1342.14</ele>
        <time>2015-09-15T07:01:11Z</time>
      </trkpt>
      <trkpt lat="41.83062" lon="9.21252">
        <ele>1342.14</ele>
        <time>2015-09-15T07:01:21Z</time>
      </trkpt>
      <trkpt lat="41.83055" lon="9.2125">
        <ele>1340.7</ele>
        <time>2015-09-15T07:01:28Z</time>
      </trkpt>
      <trkpt lat="41.83052" lon="9.21245">
        <ele>1340.7</ele>
        <time>2015-09-15T07:01:33Z</time>
      </trkpt>
      <trkpt lat="41.83039" lon="9.21233">
        <ele>1340.7</ele>
        <time>2015-09-15T07:01:50Z</time>
      </trkpt>
      <trkpt lat="41.83025" lon="9.21234">
        <ele>1340.22</ele>
        <time>2015-09-15T07:02:07Z</time>
      </trkpt>
      <trkpt lat="41.83004" lon="9.21238">
        <ele>1337.33</ele>
        <time>2015-09-15T07:02:31Z</time>
      </trkpt>
      <trkpt lat="41.82991" lon="9.2124">
        <ele>1334.93</ele>
        <time>2015-09-15T07:02:50Z</time>
      </trkpt>
      <trkpt lat="41.82981" lon="9.21245">
        <ele>1333.49</ele>
        <time>2015-09-15T07:03:10Z</time>
      </trkpt>
      <trkpt lat="41.82974" lon="9.21252">
        <ele>1331.08</ele>
        <time>2015-09-15T07:03:27Z</time>
      </trkpt>
      <trkpt lat="41.82967" lon="9.2125">
        <ele>1327.72</ele>
        <time>2015-09-15T07:03:47Z</time>
      </trkpt>
      <trkpt lat="41.82956" lon="9.21244">
        <ele>1326.28</ele>
        <time>2015-09-15T07:04:09Z</time>
      </trkpt>
      <trkpt lat="41.82955" lon="9.21234">
        <ele>1325.8</ele>
        <time>2015-09-15T07:04:28Z</time>
      </trkpt>
      <trkpt lat="41.82947" lon="9.2123">
        <ele>1326.76</ele>
        <time>2015-09-15T07:04:46Z</time>
      </trkpt>
      <trkpt lat="41.82937" lon="9.21217">
        <ele>1328.68</ele>
        <time>2015-09-15T07:05:07Z</time>
      </trkpt>
      <trkpt lat="41.82926" lon="9.21207">
        <ele>1330.6</ele>
        <time>2015-09-15T07:05:28Z</time>
      </trkpt>
      <trkpt lat="41.82915" lon="9.21199">
        <ele>1333.01</ele>
        <time>2015-09-15T07:05:50Z</time>
      </trkpt>
      <trkpt lat="41.82907" lon="9.21204">
        <ele>1335.89</ele>
        <time>2015-09-15T07:06:10Z</time>
      </trkpt>
      <trkpt lat="41.82903" lon="9.212">
        <ele>1338.29</ele>
        <time>2015-09-15T07:06:31Z</time>
      </trkpt>
      <trkpt lat="41.82899" lon="9.21196">
        <ele>1339.73</ele>
        <time>2015-09-15T07:06:49Z</time>
      </trkpt>
      <trkpt lat="41.82883" lon="9.21188">
        <ele>1341.66</ele>
        <time>2015-09-15T07:07:12Z</time>
      </trkpt>
      <trkpt lat="41.82872" lon="9.21181">
        <ele>1342.14</ele>
        <time>2015-09-15T07:07:33Z</time>
      </trkpt>
      <trkpt lat="41.82858" lon="9.2118">
        <ele>1344.06</ele>
        <time>2015-09-15T07:07:57Z</time>
      </trkpt>
      <trkpt lat="41.82837" lon="9.21179">
        <ele>1345.98</ele>
        <time>2015-09-15T07:08:21Z</time>
      </trkpt>
      <trkpt lat="41.82823" lon="9.21174">
        <ele>1345.98</ele>
        <time>2015-09-15T07:08:40Z</time>
      </trkpt>
      <trkpt lat="41.82808" lon="9.2118">
        <ele>1346.46</ele>
        <time>2015-09-15T07:08:59Z</time>
      </trkpt>
      <trkpt lat="41.82798" lon="9.21195">
        <ele>1347.91</ele>
        <time>2015-09-15T07:09:20Z</time>
      </trkpt>
      <trkpt lat="41.82792" lon="9.21209">
        <ele>1350.31</ele>
        <time>2015-09-15T07:09:44Z</time>
      </trkpt>
      <trkpt lat="41.82778" lon="9.21212">
        <ele>1352.23</ele>
        <time>2015-09-15T07:10:06Z</time>
      </trkpt>
      <trkpt lat="41.8276" lon="9.21215">
        <ele>1353.67</ele>
        <time>2015-09-15T07:10:30Z</time>
      </trkpt>
      <trkpt lat="41.82751" lon="9.21223">
        <ele>1356.08</ele>
        <time>2015-09-15T07:10:49Z</time>
      </trkpt>
      <trkpt lat="41.82748" lon="9.21231">
        <ele>1358.96</ele>
        <time>2015-09-15T07:11:09Z</time>
      </trkpt>
      <trkpt lat="41.82743" lon="9.21243">
        <ele>1360.88</ele>
        <time>2015-09-15T07:11:29Z</time>
      </trkpt>
      <trkpt lat="41.82736" lon="9.21252">
        <ele>1363.29</ele>
        <time>2015-09-15T07:11:52Z</time>
      </trkpt>
      <trkpt lat="41.8273" lon="9.21263">
        <ele>1366.17</ele>
        <time>2015-09-15T07:12:13Z</time>
      </trkpt>
      <trkpt lat="41.82727" lon="9.21267">
        <ele>1369.54</ele>
        <time>2015-09-15T07:12:34Z</time>
      </trkpt>
      <trkpt lat="41.82725" lon="9.2127">
        <ele>1371.94</ele>
        <time>2015-09-15T07:12:55Z</time>
      </trkpt>
      <trkpt lat="41.82725" lon="9.21283">
        <ele>1375.3</ele>
        <time>2015-09-15T07:13:18Z</time>
      </trkpt>
      <trkpt lat="41.82722" lon="9.21287">
        <ele>1378.67</ele>
        <time>2015-09-15T07:13:43Z</time>
      </trkpt>
      <trkpt lat="41.82717" lon="9.21289">
        <ele>1380.59</ele>
        <time>2015-09-15T07:14:06Z</time>
      </trkpt>
      <trkpt lat="41.82703" lon="9.21297">
        <ele>1381.55</ele>
        <time>2015-09-15T07:14:33Z</time>
      </trkpt>
      <trkpt lat="41.82691" lon="9.21288">
        <ele>1380.11</ele>
        <time>2015-09-15T07:14:53Z</time>
      </trkpt>
      <trkpt lat="41.82679" lon="9.21279">
        <ele>1378.19</ele>
        <time>2015-09-15T07:15:16Z</time>
      </trkpt>
      <trkpt lat="41.82668" lon="9.21267">
        <ele>1377.23</ele>
        <time>2015-09-15T07:15:38Z</time>
      </trkpt>
      <trkpt lat="41.82658" lon="9.2125">
        <ele>1376.26</ele>
        <time>2015-09-15T07:15:58Z</time>
      </trkpt>
      <trkpt lat="41.82651" lon="9.21229">
        <ele>1375.78</ele>
        <time>2015-09-15T07:16:14Z</time>
      </trkpt>
      <trkpt lat="41.82638" lon="9.2121">
        <ele>1375.3</ele>
        <time>2015-09-15T07:16:33Z</time>
      </trkpt>
      <trkpt lat="41.82622" lon="9.2119">
        <ele>1375.3</ele>
        <time>2015-09-15T07:16:53Z</time>
      </trkpt>
      <trkpt lat="41.82606" lon="9.2118">
        <ele>1374.82</ele>
        <time>2015-09-15T07:17:14Z</time>
      </trkpt>
      <trkpt lat="41.82589" lon="9.21171">
        <ele>1374.82</ele>
        <time>2015-09-15T07:17:36Z</time>
      </trkpt>
      <trkpt lat="41.82579" lon="9.21167">
        <ele>1376.26</ele>
        <time>2015-09-15T07:17:55Z</time>
      </trkpt>
      <trkpt lat="41.8256" lon="9.21166">
        <ele>1376.26</ele>
        <time>2015-09-15T07:18:15Z</time>
      </trkpt>
      <trkpt lat="41.8254" lon="9.21154">
        <ele>1376.26</ele>
        <time>2015-09-15T07:18:36Z</time>
      </trkpt>
      <trkpt lat="41.82516" lon="9.21142">
        <ele>1375.78</ele>
        <time>2015-09-15T07:18:58Z</time>
      </trkpt>
      <trkpt lat="41.82503" lon="9.21136">
        <ele>1374.82</ele>
        <time>2015-09-15T07:19:11Z</time>
      </trkpt>
      <trkpt lat="41.82484" lon="9.21125">
        <ele>1373.86</ele>
        <time>2015-09-15T07:19:33Z</time>
      </trkpt>
      <trkpt lat="41.82462" lon="9.21116">
        <ele>1371.46</ele>
        <time>2015-09-15T07:19:57Z</time>
      </trkpt>
      <trkpt lat="41.8245" lon="9.2111">
        <ele>1371.46</ele>
        <time>2015-09-15T07:20:09Z</time>
      </trkpt>
      <trkpt lat="41.82432" lon="9.21104">
        <ele>1371.46</ele>
        <time>2015-09-15T07:20:32Z</time>
      </trkpt>
      <trkpt lat="41.8241" lon="9.21102">
        <ele>1370.5</ele>
        <time>2015-09-15T07:20:55Z</time>
      </trkpt>
      <trkpt lat="41.82389" lon="9.21098">
        <ele>1369.05</ele>
        <time>2015-09-15T07:21:16Z</time>
      </trkpt>
      <trkpt lat="41.82367" lon="9.21089">
        <ele>1368.09</ele>
        <time>2015-09-15T07:21:37Z</time>
      </trkpt>
      <trkpt lat="41.82343" lon="9.21088">
        <ele>1367.13</ele>
        <time>2015-09-15T07:22:05Z</time>
      </trkpt>
      <trkpt lat="41.82325" lon="9.21098">
        <ele>1366.65</ele>
        <time>2015-09-15T07:22:29Z</time>
      </trkpt>
      <trkpt lat="41.82312" lon="9.21109">
        <ele>1364.73</ele>
        <time>2015-09-15T07:22:51Z</time>
      </trkpt>
      <trkpt lat="41.82302" lon="9.211">
        <ele>1367.13</ele>
        <time>2015-09-15T07:23:12Z</time>
      </trkpt>
      <trkpt lat="41.82285" lon="9.21074">
        <ele>1368.09</ele>
        <time>2015-09-15T07:23:35Z</time>
      </trkpt>
      <trkpt lat="41.82266" lon="9.21053">
        <ele>1368.09</ele>
        <time>2015-09-15T07:23:58Z</time>
      </trkpt>
      <trkpt lat="41.82251" lon="9.21034">
        <ele>1365.21</ele>
        <time>2015-09-15T07:24:21Z</time>
      </trkpt>
      <trkpt lat="41.82233" lon="9.21022">
        <ele>1363.29</ele>
        <time>2015-09-15T07:24:45Z</time>
      </trkpt>
      <trkpt lat="41.82219" lon="9.21016">
        <ele>1361.84</ele>
        <time>2015-09-15T07:25:05Z</time>
      </trkpt>
      <trkpt lat="41.82217" lon="9.21015">
        <ele>1361.84</ele>
        <time>2015-09-15T07:25:08Z</time>
      </trkpt>
      <trkpt lat="41.82205" lon="9.21002">
        <ele>1359.44</ele>
        <time>2015-09-15T07:25:27Z</time>
      </trkpt>
      <trkpt lat="41.82188" lon="9.20983">
        <ele>1356.56</ele>
        <time>2015-09-15T07:25:50Z</time>
      </trkpt>
      <trkpt lat="41.82179" lon="9.20974">
        <ele>1353.19</ele>
        <time>2015-09-15T07:26:10Z</time>
      </trkpt>
      <trkpt lat="41.82156" lon="9.20969">
        <ele>1350.31</ele>
        <time>2015-09-15T07:26:37Z</time>
      </trkpt>
      <trkpt lat="41.82153" lon="9.20969">
        <ele>1350.31</ele>
        <time>2015-09-15T07:26:42Z</time>
      </trkpt>
      <trkpt lat="41.82136" lon="9.20972">
        <ele>1348.87</ele>
        <time>2015-09-15T07:27:04Z</time>
      </trkpt>
      <trkpt lat="41.82118" lon="9.20967">
        <ele>1347.91</ele>
        <time>2015-09-15T07:27:23Z</time>
      </trkpt>
      <trkpt lat="41.82098" lon="9.2097">
        <ele>1345.5</ele>
        <time>2015-09-15T07:27:48Z</time>
      </trkpt>
      <trkpt lat="41.8209" lon="9.20967">
        <ele>1347.91</ele>
        <time>2015-09-15T07:28:09Z</time>
      </trkpt>
      <trkpt lat="41.82079" lon="9.20959">
        <ele>1345.02</ele>
        <time>2015-09-15T07:28:36Z</time>
      </trkpt>
      <trkpt lat="41.82059" lon="9.20949">
        <ele>1344.06</ele>
        <time>2015-09-15T07:28:58Z</time>
      </trkpt>
      <trkpt lat="41.82058" lon="9.20948">
        <ele>1344.06</ele>
        <time>2015-09-15T07:28:59Z</time>
      </trkpt>
      <trkpt lat="41.82042" lon="9.20944">
        <ele>1344.06</ele>
        <time>2015-09-15T07:29:14Z</time>
      </trkpt>
      <trkpt lat="41.82039" lon="9.20945">
        <ele>1344.06</ele>
        <time>2015-09-15T07:29:17Z</time>
      </trkpt>
      <trkpt lat="41.82023" lon="9.2095">
        <ele>1344.06</ele>
        <time>2015-09-15T07:29:38Z</time>
      </trkpt>
      <trkpt lat="41.82008" lon="9.20948">
        <ele>1341.66</ele>
        <time>2015-09-15T07:29:57Z</time>
      </trkpt>
      <trkpt lat="41.81993" lon="9.20948">
        <ele>1339.73</ele>
        <time>2015-09-15T07:30:16Z</time>
      </trkpt>
      <trkpt lat="41.81982" lon="9.20948">
        <ele>1337.81</ele>
        <time>2015-09-15T07:30:34Z</time>
      </trkpt>
      <trkpt lat="41.81973" lon="9.20948">
        <ele>1336.85</ele>
        <time>2015-09-15T07:31:00Z</time>
      </trkpt>
      <trkpt lat="41.81961" lon="9.20951">
        <ele>1335.41</ele>
        <time>2015-09-15T07:31:25Z</time>
      </trkpt>
      <trkpt lat="41.81951" lon="9.20946">
        <ele>1334.45</ele>
        <time>2015-09-15T07:31:49Z</time>
      </trkpt>
      <trkpt lat="41.81936" lon="9.20951">
        <ele>1333.01</ele>
        <time>2015-09-15T07:32:09Z</time>
      </trkpt>
      <trkpt lat="41.81922" lon="9.20948">
        <ele>1332.52</ele>
        <time>2015-09-15T07:32:28Z</time>
      </trkpt>
      <trkpt lat="41.81911" lon="9.20953">
        <ele>1330.12</ele>
        <time>2015-09-15T07:32:50Z</time>
      </trkpt>
      <trkpt lat="41.81902" lon="9.20958">
        <ele>1330.12</ele>
        <time>2015-09-15T07:33:17Z</time>
      </trkpt>
      <trkpt lat="41.81896" lon="9.20957">
        <ele>1330.6</ele>
        <time>2015-09-15T07:33:41Z</time>
      </trkpt>
      <trkpt lat="41.81889" lon="9.20953">
        <ele>1329.64</ele>
        <time>2015-09-15T07:34:02Z</time>
      </trkpt>
      <trkpt lat="41.81885" lon="9.2095">
        <ele>1331.08</ele>
        <time>2015-09-15T07:34:08Z</time>
      </trkpt>
      <trkpt lat="41.81872" lon="9.20931">
        <ele>1329.16</ele>
        <time>2015-09-15T07:34:32Z</time>
      </trkpt>
      <trkpt lat="41.81861" lon="9.20917">
        <ele>1328.2</ele>
        <time>2015-09-15T07:34:52Z</time>
      </trkpt>
      <trkpt lat="41.81851" lon="9.20905">
        <ele>1327.24</ele>
        <time>2015-09-15T07:35:15Z</time>
      </trkpt>
      <trkpt lat="41.81847" lon="9.20891">
        <ele>1325.31</ele>
        <time>2015-09-15T07:35:34Z</time>
      </trkpt>
      <trkpt lat="41.81833" lon="9.20883">
        <ele>1323.87</ele>
        <time>2015-09-15T07:35:56Z</time>
      </trkpt>
      <trkpt lat="41.81826" lon="9.20874">
        <ele>1323.87</ele>
        <time>2015-09-15T07:36:16Z</time>
      </trkpt>
      <trkpt lat="41.81821" lon="9.20866">
        <ele>1320.51</ele>
        <time>2015-09-15T07:36:34Z</time>
      </trkpt>
      <trkpt lat="41.81815" lon="9.20859">
        <ele>1318.1</ele>
        <time>2015-09-15T07:36:59Z</time>
      </trkpt>
      <trkpt lat="41.81811" lon="9.20854">
        <ele>1315.22</ele>
        <time>2015-09-15T07:37:19Z</time>
      </trkpt>
      <trkpt lat="41.81811" lon="9.20849">
        <ele>1312.34</ele>
        <time>2015-09-15T07:37:38Z</time>
      </trkpt>
      <trkpt lat="41.81803" lon="9.20837">
        <ele>1310.9</ele>
        <time>2015-09-15T07:37:59Z</time>
      </trkpt>
      <trkpt lat="41.81803" lon="9.20835">
        <ele>1312.34</ele>
        <time>2015-09-15T07:38:04Z</time>
      </trkpt>
      <trkpt lat="41.81805" lon="9.20823">
        <ele>1313.78</ele>
        <time>2015-09-15T07:38:23Z</time>
      </trkpt>
      <trkpt lat="41.81791" lon="9.20809">
        <ele>1314.74</ele>
        <time>2015-09-15T07:38:45Z</time>
      </trkpt>
      <trkpt lat="41.81786" lon="9.20799">
        <ele>1313.3</ele>
        <time>2015-09-15T07:38:56Z</time>
      </trkpt>
      <trkpt lat="41.81776" lon="9.20781">
        <ele>1312.34</ele>
        <time>2015-09-15T07:39:14Z</time>
      </trkpt>
      <trkpt lat="41.81763" lon="9.20764">
        <ele>1311.38</ele>
        <time>2015-09-15T07:39:36Z</time>
      </trkpt>
      <trkpt lat="41.8175" lon="9.2075">
        <ele>1311.38</ele>
        <time>2015-09-15T07:39:57Z</time>
      </trkpt>
      <trkpt lat="41.81741" lon="9.20728">
        <ele>1308.97</ele>
        <time>2015-09-15T07:40:22Z</time>
      </trkpt>
      <trkpt lat="41.81732" lon="9.20717">
        <ele>1306.09</ele>
        <time>2015-09-15T07:40:40Z</time>
      </trkpt>
      <trkpt lat="41.8172" lon="9.20714">
        <ele>1303.2</ele>
        <time>2015-09-15T07:40:58Z</time>
      </trkpt>
      <trkpt lat="41.81707" lon="9.20713">
        <ele>1299.84</ele>
        <time>2015-09-15T07:41:16Z</time>
      </trkpt>
      <trkpt lat="41.81686" lon="9.20704">
        <ele>1297.44</ele>
        <time>2015-09-15T07:41:39Z</time>
      </trkpt>
      <trkpt lat="41.81673" lon="9.20691">
        <ele>1294.55</ele>
        <time>2015-09-15T07:41:57Z</time>
      </trkpt>
      <trkpt lat="41.81666" lon="9.20685">
        <ele>1291.19</ele>
        <time>2015-09-15T07:42:13Z</time>
      </trkpt>
      <trkpt lat="41.81651" lon="9.20672">
        <ele>1288.3</ele>
        <time>2015-09-15T07:42:33Z</time>
      </trkpt>
      <trkpt lat="41.81638" lon="9.20674">
        <ele>1286.86</ele>
        <time>2015-09-15T07:42:51Z</time>
      </trkpt>
      <trkpt lat="41.81616" lon="9.20678">
        <ele>1283.98</ele>
        <time>2015-09-15T07:43:13Z</time>
      </trkpt>
      <trkpt lat="41.81611" lon="9.2067">
        <ele>1281.09</ele>
        <time>2015-09-15T07:43:27Z</time>
      </trkpt>
      <trkpt lat="41.81606" lon="9.20671">
        <ele>1277.73</ele>
        <time>2015-09-15T07:43:50Z</time>
      </trkpt>
      <trkpt lat="41.81586" lon="9.20655">
        <ele>1279.65</ele>
        <time>2015-09-15T07:44:15Z</time>
      </trkpt>
      <trkpt lat="41.81577" lon="9.20645">
        <ele>1282.06</ele>
        <time>2015-09-15T07:44:40Z</time>
      </trkpt>
      <trkpt lat="41.81571" lon="9.20645">
        <ele>1284.94</ele>
        <time>2015-09-15T07:45:01Z</time>
      </trkpt>
      <trkpt lat="41.81557" lon="9.20645">
        <ele>1285.9</ele>
        <time>2015-09-15T07:45:23Z</time>
      </trkpt>
      <trkpt lat="41.81542" lon="9.20644">
        <ele>1284.46</ele>
        <time>2015-09-15T07:45:45Z</time>
      </trkpt>
      <trkpt lat="41.81526" lon="9.20652">
        <ele>1284.94</ele>
        <time>2015-09-15T07:46:09Z</time>
      </trkpt>
      <trkpt lat="41.81506" lon="9.20642">
        <ele>1284.94</ele>
        <time>2015-09-15T07:46:30Z</time>
      </trkpt>
      <trkpt lat="41.81506" lon="9.20631">
        <ele>1285.9</ele>
        <time>2015-09-15T07:46:49Z</time>
      </trkpt>
      <trkpt lat="41.8151" lon="9.20616">
        <ele>1288.78</ele>
        <time>2015-09-15T07:47:13Z</time>
      </trkpt>
      <trkpt lat="41.81496" lon="9.206">
        <ele>1290.71</ele>
        <time>2015-09-15T07:47:36Z</time>
      </trkpt>
      <trkpt lat="41.81487" lon="9.20587">
        <ele>1292.63</ele>
        <time>2015-09-15T07:47:59Z</time>
      </trkpt>
      <trkpt lat="41.81478" lon="9.20577">
        <ele>1290.71</ele>
        <time>2015-09-15T07:48:22Z</time>
      </trkpt>
      <trkpt lat="41.81457" lon="9.20574">
        <ele>1289.27</ele>
        <time>2015-09-15T07:48:45Z</time>
      </trkpt>
      <trkpt lat="41.81433" lon="9.20567">
        <ele>1286.86</ele>
        <time>2015-09-15T07:49:06Z</time>
      </trkpt>
      <trkpt lat="41.8142" lon="9.20558">
        <ele>1284.46</ele>
        <time>2015-09-15T07:49:25Z</time>
      </trkpt>
      <trkpt lat="41.81419" lon="9.20558">
        <ele>1283.98</ele>
        <time>2015-09-15T07:49:28Z</time>
      </trkpt>
      <trkpt lat="41.81409" lon="9.20553">
        <ele>1281.09</ele>
        <time>2015-09-15T07:49:46Z</time>
      </trkpt>
      <trkpt lat="41.81397" lon="9.20549">
        <ele>1278.21</ele>
        <time>2015-09-15T07:50:05Z</time>
      </trkpt>
      <trkpt lat="41.81378" lon="9.20551">
        <ele>1276.29</ele>
        <time>2015-09-15T07:50:26Z</time>
      </trkpt>
      <trkpt lat="41.81358" lon="9.20546">
        <ele>1273.88</ele>
        <time>2015-09-15T07:50:49Z</time>
      </trkpt>
      <trkpt lat="41.81345" lon="9.20549">
        <ele>1271.96</ele>
        <time>2015-09-15T07:51:08Z</time>
      </trkpt>
      <trkpt lat="41.81339" lon="9.20565">
        <ele>1270.52</ele>
        <time>2015-09-15T07:51:26Z</time>
      </trkpt>
      <trkpt lat="41.81333" lon="9.20571">
        <ele>1273.4</ele>
        <time>2015-09-15T07:51:39Z</time>
      </trkpt>
      <trkpt lat="41.81324" lon="9.20571">
        <ele>1274.36</ele>
        <time>2015-09-15T07:51:53Z</time>
      </trkpt>
      <trkpt lat="41.81322" lon="9.20572">
        <ele>1273.4</ele>
        <time>2015-09-15T07:51:55Z</time>
      </trkpt>
      <trkpt lat="41.81313" lon="9.20578">
        <ele>1271.48</ele>
        <time>2015-09-15T07:52:18Z</time>
      </trkpt>
      <trkpt lat="41.81299" lon="9.20574">
        <ele>1272.92</ele>
        <time>2015-09-15T07:52:35Z</time>
      </trkpt>
      <trkpt lat="41.81288" lon="9.20574">
        <ele>1274.85</ele>
        <time>2015-09-15T07:52:54Z</time>
      </trkpt>
      <trkpt lat="41.81277" lon="9.2058">
        <ele>1276.29</ele>
        <time>2015-09-15T07:53:13Z</time>
      </trkpt>
      <trkpt lat="41.81269" lon="9.20594">
        <ele>1275.81</ele>
        <time>2015-09-15T07:53:33Z</time>
      </trkpt>
      <trkpt lat="41.81267" lon="9.20612">
        <ele>1273.88</ele>
        <time>2015-09-15T07:53:56Z</time>
      </trkpt>
      <trkpt lat="41.81255" lon="9.20612">
        <ele>1271.96</ele>
        <time>2015-09-15T07:54:18Z</time>
      </trkpt>
      <trkpt lat="41.8124" lon="9.20602">
        <ele>1271.48</ele>
        <time>2015-09-15T07:54:34Z</time>
      </trkpt>
      <trkpt lat="41.81224" lon="9.20594">
        <ele>1272.44</ele>
        <time>2015-09-15T07:54:42Z</time>
      </trkpt>
      <trkpt lat="41.81234" lon="9.20589">
        <ele>1274.85</ele>
        <time>2015-09-15T07:54:59Z</time>
      </trkpt>
      <trkpt lat="41.81231" lon="9.20576">
        <ele>1276.77</ele>
        <time>2015-09-15T07:55:21Z</time>
      </trkpt>
      <trkpt lat="41.81211" lon="9.20567">
        <ele>1279.65</ele>
        <time>2015-09-15T07:55:44Z</time>
      </trkpt>
      <trkpt lat="41.8121" lon="9.20574">
        <ele>1280.61</ele>
        <time>2015-09-15T07:56:05Z</time>
      </trkpt>
      <trkpt lat="41.81211" lon="9.20574">
        <ele>1281.09</ele>
        <time>2015-09-15T07:56:07Z</time>
      </trkpt>
      <trkpt lat="41.81214" lon="9.20573">
        <ele>1281.09</ele>
        <time>2015-09-15T07:56:11Z</time>
      </trkpt>
      <trkpt lat="41.81208" lon="9.20559">
        <ele>1281.09</ele>
        <time>2015-09-15T07:56:29Z</time>
      </trkpt>
      <trkpt lat="41.81194" lon="9.20548">
        <ele>1283.5</ele>
        <time>2015-09-15T07:56:47Z</time>
      </trkpt>
      <trkpt lat="41.81175" lon="9.20534">
        <ele>1284.46</ele>
        <time>2015-09-15T07:57:08Z</time>
      </trkpt>
      <trkpt lat="41.81172" lon="9.20519">
        <ele>1286.38</ele>
        <time>2015-09-15T07:57:32Z</time>
      </trkpt>
      <trkpt lat="41.81197" lon="9.20507">
        <ele>1284.94</ele>
        <time>2015-09-15T07:57:59Z</time>
      </trkpt>
      <trkpt lat="41.81222" lon="9.20499">
        <ele>1283.02</ele>
        <time>2015-09-15T07:58:20Z</time>
      </trkpt>
      <trkpt lat="41.81252" lon="9.20502">
        <ele>1283.98</ele>
        <time>2015-09-15T07:58:35Z</time>
      </trkpt>
      <trkpt lat="41.81259" lon="9.20483">
        <ele>1283.02</ele>
        <time>2015-09-15T07:58:56Z</time>
      </trkpt>
      <trkpt lat="41.81259" lon="9.20458">
        <ele>1281.57</ele>
        <time>2015-09-15T07:59:13Z</time>
      </trkpt>
      <trkpt lat="41.8125" lon="9.20429">
        <ele>1279.17</ele>
        <time>2015-09-15T07:59:36Z</time>
      </trkpt>
      <trkpt lat="41.81229" lon="9.20411">
        <ele>1280.13</ele>
        <time>2015-09-15T08:00:00Z</time>
      </trkpt>
      <trkpt lat="41.81203" lon="9.20403">
        <ele>1281.09</ele>
        <time>2015-09-15T08:00:24Z</time>
      </trkpt>
      <trkpt lat="41.81192" lon="9.2038">
        <ele>1278.69</ele>
        <time>2015-09-15T08:00:48Z</time>
      </trkpt>
      <trkpt lat="41.81177" lon="9.20368">
        <ele>1279.17</ele>
        <time>2015-09-15T08:01:08Z</time>
      </trkpt>
      <trkpt lat="41.81164" lon="9.20346">
        <ele>1277.73</ele>
        <time>2015-09-15T08:01:38Z</time>
      </trkpt>
      <trkpt lat="41.81158" lon="9.2033">
        <ele>1275.81</ele>
        <time>2015-09-15T08:02:02Z</time>
      </trkpt>
      <trkpt lat="41.81153" lon="9.20322">
        <ele>1272.92</ele>
        <time>2015-09-15T08:02:19Z</time>
      </trkpt>
      <trkpt lat="41.81139" lon="9.20298">
        <ele>1270.52</ele>
        <time>2015-09-15T08:02:45Z</time>
      </trkpt>
      <trkpt lat="41.81125" lon="9.20275">
        <ele>1269.08</ele>
        <time>2015-09-15T08:03:06Z</time>
      </trkpt>
      <trkpt lat="41.81119" lon="9.20261">
        <ele>1266.67</ele>
        <time>2015-09-15T08:03:25Z</time>
      </trkpt>
      <trkpt lat="41.81107" lon="9.20248">
        <ele>1264.75</ele>
        <time>2015-09-15T08:03:47Z</time>
      </trkpt>
      <trkpt lat="41.81091" lon="9.20231">
        <ele>1264.75</ele>
        <time>2015-09-15T08:04:08Z</time>
      </trkpt>
      <trkpt lat="41.81083" lon="9.20208">
        <ele>1264.75</ele>
        <time>2015-09-15T08:04:32Z</time>
      </trkpt>
      <trkpt lat="41.81075" lon="9.20195">
        <ele>1261.87</ele>
        <time>2015-09-15T08:04:55Z</time>
      </trkpt>
      <trkpt lat="41.81058" lon="9.20165">
        <ele>1259.94</ele>
        <time>2015-09-15T08:05:17Z</time>
      </trkpt>
      <trkpt lat="41.81045" lon="9.20157">
        <ele>1258.5</ele>
        <time>2015-09-15T08:05:34Z</time>
      </trkpt>
      <trkpt lat="41.81028" lon="9.20146">
        <ele>1256.58</ele>
        <time>2015-09-15T08:05:58Z</time>
      </trkpt>
      <trkpt lat="41.81026" lon="9.20142">
        <ele>1258.02</ele>
        <time>2015-09-15T08:06:04Z</time>
      </trkpt>
      <trkpt lat="41.81016" lon="9.20126">
        <ele>1258.5</ele>
        <time>2015-09-15T08:06:26Z</time>
      </trkpt>
      <trkpt lat="41.80993" lon="9.20118">
        <ele>1259.46</ele>
        <time>2015-09-15T08:06:50Z</time>
      </trkpt>
      <trkpt lat="41.80976" lon="9.20112">
        <ele>1257.06</ele>
        <time>2015-09-15T08:07:15Z</time>
      </trkpt>
      <trkpt lat="41.80959" lon="9.20089">
        <ele>1256.58</ele>
        <time>2015-09-15T08:07:36Z</time>
      </trkpt>
      <trkpt lat="41.80944" lon="9.20071">
        <ele>1255.14</ele>
        <time>2015-09-15T08:07:57Z</time>
      </trkpt>
      <trkpt lat="41.80934" lon="9.20056">
        <ele>1253.7</ele>
        <time>2015-09-15T08:08:10Z</time>
      </trkpt>
      <trkpt lat="41.80921" lon="9.20053">
        <ele>1252.74</ele>
        <time>2015-09-15T08:08:26Z</time>
      </trkpt>
      <trkpt lat="41.80907" lon="9.20055">
        <ele>1252.25</ele>
        <time>2015-09-15T08:08:45Z</time>
      </trkpt>
      <trkpt lat="41.80889" lon="9.20057">
        <ele>1250.33</ele>
        <time>2015-09-15T08:09:03Z</time>
      </trkpt>
      <trkpt lat="41.80883" lon="9.20061">
        <ele>1249.85</ele>
        <time>2015-09-15T08:09:09Z</time>
      </trkpt>
      <trkpt lat="41.80868" lon="9.20063">
        <ele>1248.89</ele>
        <time>2015-09-15T08:09:25Z</time>
      </trkpt>
      <trkpt lat="41.80851" lon="9.20063">
        <ele>1246.49</ele>
        <time>2015-09-15T08:09:49Z</time>
      </trkpt>
      <trkpt lat="41.80834" lon="9.20051">
        <ele>1245.04</ele>
        <time>2015-09-15T08:10:07Z</time>
      </trkpt>
      <trkpt lat="41.80824" lon="9.20042">
        <ele>1241.68</ele>
        <time>2015-09-15T08:10:22Z</time>
      </trkpt>
      <trkpt lat="41.80809" lon="9.20031">
        <ele>1239.76</ele>
        <time>2015-09-15T08:10:43Z</time>
      </trkpt>
      <trkpt lat="41.80789" lon="9.20017">
        <ele>1238.32</ele>
        <time>2015-09-15T08:11:06Z</time>
      </trkpt>
      <trkpt lat="41.8078" lon="9.20012">
        <ele>1235.91</ele>
        <time>2015-09-15T08:11:30Z</time>
      </trkpt>
      <trkpt lat="41.8078" lon="9.2001">
        <ele>1236.87</ele>
        <time>2015-09-15T08:11:33Z</time>
      </trkpt>
      <trkpt lat="41.80773" lon="9.20003">
        <ele>1240.24</ele>
        <time>2015-09-15T08:11:54Z</time>
      </trkpt>
      <trkpt lat="41.80766" lon="9.19987">
        <ele>1241.2</ele>
        <time>2015-09-15T08:12:16Z</time>
      </trkpt>
      <trkpt lat="41.80763" lon="9.19977">
        <ele>1244.08</ele>
        <time>2015-09-15T08:12:39Z</time>
      </trkpt>
      <trkpt lat="41.80766" lon="9.19969">
        <ele>1247.45</ele>
        <time>2015-09-15T08:13:01Z</time>
      </trkpt>
      <trkpt lat="41.80753" lon="9.19958">
        <ele>1250.33</ele>
        <time>2015-09-15T08:13:28Z</time>
      </trkpt>
      <trkpt lat="41.80749" lon="9.19949">
        <ele>1251.29</ele>
        <time>2015-09-15T08:13:49Z</time>
      </trkpt>
      <trkpt lat="41.80756" lon="9.19945">
        <ele>1251.77</ele>
        <time>2015-09-15T08:14:20Z</time>
      </trkpt>
      <trkpt lat="41.80747" lon="9.19949">
        <ele>1254.18</ele>
        <time>2015-09-15T08:14:43Z</time>
      </trkpt>
      <trkpt lat="41.80735" lon="9.19949">
        <ele>1256.58</ele>
        <time>2015-09-15T08:15:06Z</time>
      </trkpt>
      <trkpt lat="41.80728" lon="9.19951">
        <ele>1259.46</ele>
        <time>2015-09-15T08:15:31Z</time>
      </trkpt>
      <trkpt lat="41.8072" lon="9.19959">
        <ele>1262.83</ele>
        <time>2015-09-15T08:15:54Z</time>
      </trkpt>
      <trkpt lat="41.80718" lon="9.19966">
        <ele>1265.23</ele>
        <time>2015-09-15T08:16:12Z</time>
      </trkpt>
      <trkpt lat="41.80708" lon="9.19959">
        <ele>1268.12</ele>
        <time>2015-09-15T08:16:35Z</time>
      </trkpt>
      <trkpt lat="41.80696" lon="9.19953">
        <ele>1268.12</ele>
        <time>2015-09-15T08:16:56Z</time>
      </trkpt>
      <trkpt lat="41.80693" lon="9.19948">
        <ele>1265.23</ele>
        <time>2015-09-15T08:17:18Z</time>
      </trkpt>
      <trkpt lat="41.80679" lon="9.19944">
        <ele>1261.87</ele>
        <time>2015-09-15T08:17:40Z</time>
      </trkpt>
      <trkpt lat="41.80672" lon="9.19937">
        <ele>1258.5</ele>
        <time>2015-09-15T08:17:58Z</time>
      </trkpt>
      <trkpt lat="41.80669" lon="9.19923">
        <ele>1255.62</ele>
        <time>2015-09-15T08:18:22Z</time>
      </trkpt>
      <trkpt lat="41.8067" lon="9.19916">
        <ele>1252.25</ele>
        <time>2015-09-15T08:18:41Z</time>
      </trkpt>
      <trkpt lat="41.80667" lon="9.19902">
        <ele>1249.37</ele>
        <time>2015-09-15T08:18:59Z</time>
      </trkpt>
      <trkpt lat="41.80662" lon="9.19885">
        <ele>1246.97</ele>
        <time>2015-09-15T08:19:19Z</time>
      </trkpt>
      <trkpt lat="41.8066" lon="9.19873">
        <ele>1245.04</ele>
        <time>2015-09-15T08:19:32Z</time>
      </trkpt>
      <trkpt lat="41.80653" lon="9.19856">
        <ele>1244.56</ele>
        <time>2015-09-15T08:19:52Z</time>
      </trkpt>
      <trkpt lat="41.80642" lon="9.19845">
        <ele>1244.08</ele>
        <time>2015-09-15T08:20:07Z</time>
      </trkpt>
      <trkpt lat="41.80628" lon="9.19839">
        <ele>1243.6</ele>
        <time>2015-09-15T08:20:28Z</time>
      </trkpt>
      <trkpt lat="41.80615" lon="9.19824">
        <ele>1240.72</ele>
        <time>2015-09-15T08:20:52Z</time>
      </trkpt>
      <trkpt lat="41.80602" lon="9.19807">
        <ele>1237.35</ele>
        <time>2015-09-15T08:21:15Z</time>
      </trkpt>
      <trkpt lat="41.80593" lon="9.1979">
        <ele>1233.99</ele>
        <time>2015-09-15T08:21:35Z</time>
      </trkpt>
      <trkpt lat="41.80592" lon="9.19776">
        <ele>1233.03</ele>
        <time>2015-09-15T08:21:58Z</time>
      </trkpt>
      <trkpt lat="41.80581" lon="9.19761">
        <ele>1231.11</ele>
        <time>2015-09-15T08:22:18Z</time>
      </trkpt>
      <trkpt lat="41.80572" lon="9.19755">
        <ele>1227.74</ele>
        <time>2015-09-15T08:22:36Z</time>
      </trkpt>
      <trkpt lat="41.80561" lon="9.19743">
        <ele>1225.34</ele>
        <time>2015-09-15T08:22:57Z</time>
      </trkpt>
      <trkpt lat="41.80551" lon="9.1974">
        <ele>1222.93</ele>
        <time>2015-09-15T08:23:18Z</time>
      </trkpt>
      <trkpt lat="41.80542" lon="9.19732">
        <ele>1220.53</ele>
        <time>2015-09-15T08:23:36Z</time>
      </trkpt>
      <trkpt lat="41.80529" lon="9.19723">
        <ele>1218.13</ele>
        <time>2015-09-15T08:23:55Z</time>
      </trkpt>
      <trkpt lat="41.80517" lon="9.19711">
        <ele>1216.21</ele>
        <time>2015-09-15T08:24:15Z</time>
      </trkpt>
      <trkpt lat="41.80502" lon="9.19705">
        <ele>1213.8</ele>
        <time>2015-09-15T08:24:36Z</time>
      </trkpt>
      <trkpt lat="41.8049" lon="9.1969">
        <ele>1210.92</ele>
        <time>2015-09-15T08:24:56Z</time>
      </trkpt>
      <trkpt lat="41.80477" lon="9.19674">
        <ele>1209.96</ele>
        <time>2015-09-15T08:25:16Z</time>
      </trkpt>
      <trkpt lat="41.80466" lon="9.19673">
        <ele>1206.11</ele>
        <time>2015-09-15T08:25:36Z</time>
      </trkpt>
      <trkpt lat="41.80458" lon="9.1967">
        <ele>1202.75</ele>
        <time>2015-09-15T08:25:54Z</time>
      </trkpt>
      <trkpt lat="41.80452" lon="9.19657">
        <ele>1199.86</ele>
        <time>2015-09-15T08:26:12Z</time>
      </trkpt>
      <trkpt lat="41.80445" lon="9.19646">
        <ele>1197.46</ele>
        <time>2015-09-15T08:26:26Z</time>
      </trkpt>
      <trkpt lat="41.80437" lon="9.19631">
        <ele>1195.06</ele>
        <time>2015-09-15T08:26:46Z</time>
      </trkpt>
      <trkpt lat="41.80434" lon="9.19616">
        <ele>1191.69</ele>
        <time>2015-09-15T08:26:58Z</time>
      </trkpt>
      <trkpt lat="41.80426" lon="9.19604">
        <ele>1189.29</ele>
        <time>2015-09-15T08:27:14Z</time>
      </trkpt>
      <trkpt lat="41.80421" lon="9.19595">
        <ele>1185.92</ele>
        <time>2015-09-15T08:27:30Z</time>
      </trkpt>
      <trkpt lat="41.80408" lon="9.19593">
        <ele>1183.52</ele>
        <time>2015-09-15T08:27:49Z</time>
      </trkpt>
      <trkpt lat="41.80398" lon="9.19594">
        <ele>1180.16</ele>
        <time>2015-09-15T08:28:06Z</time>
      </trkpt>
      <trkpt lat="41.80391" lon="9.196">
        <ele>1178.71</ele>
        <time>2015-09-15T08:28:25Z</time>
      </trkpt>
      <trkpt lat="41.80389" lon="9.19602">
        <ele>1178.71</ele>
        <time>2015-09-15T08:28:56Z</time>
      </trkpt>
      <trkpt lat="41.80384" lon="9.19598">
        <ele>1178.23</ele>
        <time>2015-09-15T08:29:18Z</time>
      </trkpt>
      <trkpt lat="41.80383" lon="9.19599">
        <ele>1179.67</ele>
        <time>2015-09-15T08:29:22Z</time>
      </trkpt>
      <trkpt lat="41.80376" lon="9.19597">
        <ele>1179.67</ele>
        <time>2015-09-15T08:29:38Z</time>
      </trkpt>
      <trkpt lat="41.80367" lon="9.1959">
        <ele>1181.12</ele>
        <time>2015-09-15T08:29:56Z</time>
      </trkpt>
      <trkpt lat="41.80358" lon="9.19583">
        <ele>1183.52</ele>
        <time>2015-09-15T08:30:17Z</time>
      </trkpt>
      <trkpt lat="41.80351" lon="9.19576">
        <ele>1182.08</ele>
        <time>2015-09-15T08:30:33Z</time>
      </trkpt>
      <trkpt lat="41.80343" lon="9.19571">
        <ele>1182.08</ele>
        <time>2015-09-15T08:30:54Z</time>
      </trkpt>
      <trkpt lat="41.80333" lon="9.19566">
        <ele>1181.12</ele>
        <time>2015-09-15T08:31:13Z</time>
      </trkpt>
      <trkpt lat="41.80324" lon="9.19567">
        <ele>1177.75</ele>
        <time>2015-09-15T08:31:32Z</time>
      </trkpt>
      <trkpt lat="41.80316" lon="9.19561">
        <ele>1174.87</ele>
        <time>2015-09-15T08:31:51Z</time>
      </trkpt>
      <trkpt lat="41.80307" lon="9.19553">
        <ele>1171.98</ele>
        <time>2015-09-15T08:32:13Z</time>
      </trkpt>
      <trkpt lat="41.80296" lon="9.1955">
        <ele>1169.58</ele>
        <time>2015-09-15T08:32:34Z</time>
      </trkpt>
      <trkpt lat="41.80288" lon="9.19541">
        <ele>1166.7</ele>
        <time>2015-09-15T08:32:55Z</time>
      </trkpt>
      <trkpt lat="41.80274" lon="9.1954">
        <ele>1164.29</ele>
        <time>2015-09-15T08:33:12Z</time>
      </trkpt>
      <trkpt lat="41.80256" lon="9.19539">
        <ele>1162.85</ele>
        <time>2015-09-15T08:33:32Z</time>
      </trkpt>
      <trkpt lat="41.80244" lon="9.19532">
        <ele>1161.41</ele>
        <time>2015-09-15T08:33:51Z</time>
      </trkpt>
      <trkpt lat="41.80229" lon="9.19525">
        <ele>1160.93</ele>
        <time>2015-09-15T08:34:11Z</time>
      </trkpt>
      <trkpt lat="41.80218" lon="9.19519">
        <ele>1159.97</ele>
        <time>2015-09-15T08:34:28Z</time>
      </trkpt>
      <trkpt lat="41.80204" lon="9.19508">
        <ele>1159.01</ele>
        <time>2015-09-15T08:34:47Z</time>
      </trkpt>
      <trkpt lat="41.80196" lon="9.19501">
        <ele>1159.49</ele>
        <time>2015-09-15T08:35:06Z</time>
      </trkpt>
      <trkpt lat="41.8018" lon="9.19493">
        <ele>1158.53</ele>
        <time>2015-09-15T08:35:27Z</time>
      </trkpt>
      <trkpt lat="41.8017" lon="9.19486">
        <ele>1157.56</ele>
        <time>2015-09-15T08:35:46Z</time>
      </trkpt>
      <trkpt lat="41.80161" lon="9.19479">
        <ele>1156.6</ele>
        <time>2015-09-15T08:36:00Z</time>
      </trkpt>
      <trkpt lat="41.80153" lon="9.19472">
        <ele>1154.68</ele>
        <time>2015-09-15T08:36:20Z</time>
      </trkpt>
      <trkpt lat="41.80147" lon="9.1947">
        <ele>1154.2</ele>
        <time>2015-09-15T08:36:28Z</time>
      </trkpt>
      <trkpt lat="41.80133" lon="9.19459">
        <ele>1154.2</ele>
        <time>2015-09-15T08:36:46Z</time>
      </trkpt>
      <trkpt lat="41.80113" lon="9.19451">
        <ele>1154.68</ele>
        <time>2015-09-15T08:37:08Z</time>
      </trkpt>
      <trkpt lat="41.80098" lon="9.19446">
        <ele>1153.72</ele>
        <time>2015-09-15T08:37:27Z</time>
      </trkpt>
      <trkpt lat="41.80089" lon="9.1944">
        <ele>1152.76</ele>
        <time>2015-09-15T08:37:43Z</time>
      </trkpt>
      <trkpt lat="41.80082" lon="9.19431">
        <ele>1151.8</ele>
        <time>2015-09-15T08:37:57Z</time>
      </trkpt>
      <trkpt lat="41.80069" lon="9.19421">
        <ele>1151.8</ele>
        <time>2015-09-15T08:38:14Z</time>
      </trkpt>
      <trkpt lat="41.80056" lon="9.19416">
        <ele>1152.28</ele>
        <time>2015-09-15T08:38:30Z</time>
      </trkpt>
      <trkpt lat="41.80045" lon="9.19407">
        <ele>1151.32</ele>
        <time>2015-09-15T08:38:47Z</time>
      </trkpt>
      <trkpt lat="41.80038" lon="9.19397">
        <ele>1151.32</ele>
        <time>2015-09-15T08:38:59Z</time>
      </trkpt>
      <trkpt lat="41.80028" lon="9.19396">
        <ele>1150.35</ele>
        <time>2015-09-15T08:39:18Z</time>
      </trkpt>
      <trkpt lat="41.80021" lon="9.19393">
        <ele>1147.95</ele>
        <time>2015-09-15T08:39:36Z</time>
      </trkpt>
      <trkpt lat="41.80018" lon="9.19387">
        <ele>1144.59</ele>
        <time>2015-09-15T08:39:53Z</time>
      </trkpt>
      <trkpt lat="41.8001" lon="9.19388">
        <ele>1142.66</ele>
        <time>2015-09-15T08:40:14Z</time>
      </trkpt>
      <trkpt lat="41.80002" lon="9.19388">
        <ele>1139.78</ele>
        <time>2015-09-15T08:40:34Z</time>
      </trkpt>
      <trkpt lat="41.79997" lon="9.1939">
        <ele>1137.38</ele>
        <time>2015-09-15T08:40:51Z</time>
      </trkpt>
      <trkpt lat="41.79991" lon="9.19387">
        <ele>1135.45</ele>
        <time>2015-09-15T08:41:08Z</time>
      </trkpt>
      <trkpt lat="41.79981" lon="9.19397">
        <ele>1133.53</ele>
        <time>2015-09-15T08:41:28Z</time>
      </trkpt>
      <trkpt lat="41.79966" lon="9.194">
        <ele>1132.09</ele>
        <time>2015-09-15T08:41:50Z</time>
      </trkpt>
      <trkpt lat="41.79952" lon="9.19402">
        <ele>1130.65</ele>
        <time>2015-09-15T08:42:11Z</time>
      </trkpt>
      <trkpt lat="41.79935" lon="9.19407">
        <ele>1130.17</ele>
        <time>2015-09-15T08:42:33Z</time>
      </trkpt>
      <trkpt lat="41.79919" lon="9.1941">
        <ele>1129.21</ele>
        <time>2015-09-15T08:42:54Z</time>
      </trkpt>
      <trkpt lat="41.79907" lon="9.19418">
        <ele>1129.69</ele>
        <time>2015-09-15T08:43:16Z</time>
      </trkpt>
      <trkpt lat="41.79897" lon="9.19421">
        <ele>1130.65</ele>
        <time>2015-09-15T08:43:32Z</time>
      </trkpt>
      <trkpt lat="41.79886" lon="9.19421">
        <ele>1131.13</ele>
        <time>2015-09-15T08:43:49Z</time>
      </trkpt>
      <trkpt lat="41.79874" lon="9.19422">
        <ele>1131.13</ele>
        <time>2015-09-15T08:44:08Z</time>
      </trkpt>
      <trkpt lat="41.7986" lon="9.19415">
        <ele>1131.61</ele>
        <time>2015-09-15T08:44:26Z</time>
      </trkpt>
      <trkpt lat="41.79846" lon="9.19409">
        <ele>1130.65</ele>
        <time>2015-09-15T08:44:41Z</time>
      </trkpt>
      <trkpt lat="41.79833" lon="9.19413">
        <ele>1132.09</ele>
        <time>2015-09-15T08:44:59Z</time>
      </trkpt>
      <trkpt lat="41.79818" lon="9.19417">
        <ele>1132.57</ele>
        <time>2015-09-15T08:45:19Z</time>
      </trkpt>
      <trkpt lat="41.79807" lon="9.19422">
        <ele>1132.09</ele>
        <time>2015-09-15T08:45:37Z</time>
      </trkpt>
      <trkpt lat="41.79796" lon="9.19424">
        <ele>1132.57</ele>
        <time>2015-09-15T08:45:54Z</time>
      </trkpt>
      <trkpt lat="41.79784" lon="9.19433">
        <ele>1132.57</ele>
        <time>2015-09-15T08:46:11Z</time>
      </trkpt>
      <trkpt lat="41.79772" lon="9.19438">
        <ele>1133.05</ele>
        <time>2015-09-15T08:46:28Z</time>
      </trkpt>
      <trkpt lat="41.79769" lon="9.1944">
        <ele>1132.57</ele>
        <time>2015-09-15T08:46:54Z</time>
      </trkpt>
      <trkpt lat="41.79763" lon="9.19443">
        <ele>1131.13</ele>
        <time>2015-09-15T08:47:03Z</time>
      </trkpt>
      <trkpt lat="41.79747" lon="9.1945">
        <ele>1128.24</ele>
        <time>2015-09-15T08:47:22Z</time>
      </trkpt>
      <trkpt lat="41.79736" lon="9.19445">
        <ele>1124.88</ele>
        <time>2015-09-15T08:47:40Z</time>
      </trkpt>
      <trkpt lat="41.79727" lon="9.19443">
        <ele>1121.52</ele>
        <time>2015-09-15T08:47:58Z</time>
      </trkpt>
      <trkpt lat="41.7972" lon="9.19436">
        <ele>1119.11</ele>
        <time>2015-09-15T08:48:15Z</time>
      </trkpt>
      <trkpt lat="41.79712" lon="9.19428">
        <ele>1115.27</ele>
        <time>2015-09-15T08:48:32Z</time>
      </trkpt>
      <trkpt lat="41.79701" lon="9.19423">
        <ele>1112.38</ele>
        <time>2015-09-15T08:48:48Z</time>
      </trkpt>
      <trkpt lat="41.79697" lon="9.19411">
        <ele>1109.98</ele>
        <time>2015-09-15T08:49:07Z</time>
      </trkpt>
      <trkpt lat="41.79693" lon="9.19407">
        <ele>1106.61</ele>
        <time>2015-09-15T08:49:19Z</time>
      </trkpt>
      <trkpt lat="41.7969" lon="9.19396">
        <ele>1103.73</ele>
        <time>2015-09-15T08:49:39Z</time>
      </trkpt>
      <trkpt lat="41.79686" lon="9.19388">
        <ele>1100.85</ele>
        <time>2015-09-15T08:49:54Z</time>
      </trkpt>
      <trkpt lat="41.7968" lon="9.19383">
        <ele>1097.48</ele>
        <time>2015-09-15T08:50:10Z</time>
      </trkpt>
      <trkpt lat="41.79672" lon="9.1938">
        <ele>1095.56</ele>
        <time>2015-09-15T08:50:27Z</time>
      </trkpt>
      <trkpt lat="41.79665" lon="9.19376">
        <ele>1092.2</ele>
        <time>2015-09-15T08:50:41Z</time>
      </trkpt>
      <trkpt lat="41.79659" lon="9.19369">
        <ele>1088.83</ele>
        <time>2015-09-15T08:51:02Z</time>
      </trkpt>
      <trkpt lat="41.79659" lon="9.19357">
        <ele>1085.95</ele>
        <time>2015-09-15T08:51:16Z</time>
      </trkpt>
      <trkpt lat="41.79647" lon="9.19353">
        <ele>1082.58</ele>
        <time>2015-09-15T08:51:34Z</time>
      </trkpt>
      <trkpt lat="41.79638" lon="9.19355">
        <ele>1080.18</ele>
        <time>2015-09-15T08:51:51Z</time>
      </trkpt>
      <trkpt lat="41.79635" lon="9.19352">
        <ele>1079.22</ele>
        <time>2015-09-15T08:52:15Z</time>
      </trkpt>
      <trkpt lat="41.79631" lon="9.19356">
        <ele>1076.33</ele>
        <time>2015-09-15T08:52:36Z</time>
      </trkpt>
      <trkpt lat="41.79626" lon="9.19363">
        <ele>1074.41</ele>
        <time>2015-09-15T08:52:52Z</time>
      </trkpt>
      <trkpt lat="41.79621" lon="9.19373">
        <ele>1072.01</ele>
        <time>2015-09-15T08:53:11Z</time>
      </trkpt>
      <trkpt lat="41.79613" lon="9.19384">
        <ele>1069.12</ele>
        <time>2015-09-15T08:53:31Z</time>
      </trkpt>
      <trkpt lat="41.79606" lon="9.19389">
        <ele>1065.76</ele>
        <time>2015-09-15T08:53:54Z</time>
      </trkpt>
      <trkpt lat="41.796" lon="9.19398">
        <ele>1062.39</ele>
        <time>2015-09-15T08:54:15Z</time>
      </trkpt>
      <trkpt lat="41.79596" lon="9.19418">
        <ele>1060.47</ele>
        <time>2015-09-15T08:54:36Z</time>
      </trkpt>
      <trkpt lat="41.79593" lon="9.19429">
        <ele>1059.99</ele>
        <time>2015-09-15T08:54:51Z</time>
      </trkpt>
      <trkpt lat="41.79591" lon="9.19434">
        <ele>1059.03</ele>
        <time>2015-09-15T08:54:57Z</time>
      </trkpt>
      <trkpt lat="41.79582" lon="9.19455">
        <ele>1059.03</ele>
        <time>2015-09-15T08:55:15Z</time>
      </trkpt>
      <trkpt lat="41.79573" lon="9.19471">
        <ele>1057.11</ele>
        <time>2015-09-15T08:55:33Z</time>
      </trkpt>
      <trkpt lat="41.79561" lon="9.19491">
        <ele>1057.11</ele>
        <time>2015-09-15T08:55:54Z</time>
      </trkpt>
      <trkpt lat="41.79549" lon="9.19512">
        <ele>1055.67</ele>
        <time>2015-09-15T08:56:15Z</time>
      </trkpt>
      <trkpt lat="41.79545" lon="9.19525">
        <ele>1054.7</ele>
        <time>2015-09-15T08:56:27Z</time>
      </trkpt>
      <trkpt lat="41.79537" lon="9.19554">
        <ele>1053.74</ele>
        <time>2015-09-15T08:56:49Z</time>
      </trkpt>
      <trkpt lat="41.7953" lon="9.19578">
        <ele>1052.78</ele>
        <time>2015-09-15T08:57:08Z</time>
      </trkpt>
      <trkpt lat="41.79523" lon="9.19603">
        <ele>1051.34</ele>
        <time>2015-09-15T08:57:30Z</time>
      </trkpt>
      <trkpt lat="41.79516" lon="9.19621">
        <ele>1050.86</ele>
        <time>2015-09-15T08:57:42Z</time>
      </trkpt>
      <trkpt lat="41.79507" lon="9.19644">
        <ele>1050.86</ele>
        <time>2015-09-15T08:58:01Z</time>
      </trkpt>
      <trkpt lat="41.79505" lon="9.19669">
        <ele>1051.34</ele>
        <time>2015-09-15T08:58:21Z</time>
      </trkpt>
      <trkpt lat="41.79506" lon="9.19691">
        <ele>1052.3</ele>
        <time>2015-09-15T08:58:38Z</time>
      </trkpt>
      <trkpt lat="41.79512" lon="9.19706">
        <ele>1050.86</ele>
        <time>2015-09-15T08:58:50Z</time>
      </trkpt>
      <trkpt lat="41.79524" lon="9.19727">
        <ele>1049.9</ele>
        <time>2015-09-15T08:59:11Z</time>
      </trkpt>
      <trkpt lat="41.79526" lon="9.19736">
        <ele>1049.42</ele>
        <time>2015-09-15T08:59:17Z</time>
      </trkpt>
      <trkpt lat="41.79526" lon="9.19738">
        <ele>1049.42</ele>
        <time>2015-09-15T08:59:18Z</time>
      </trkpt>
      <trkpt lat="41.79531" lon="9.19759">
        <ele>1048.94</ele>
        <time>2015-09-15T08:59:38Z</time>
      </trkpt>
      <trkpt lat="41.7953" lon="9.1977">
        <ele>1048.45</ele>
        <time>2015-09-15T09:00:01Z</time>
      </trkpt>
      <trkpt lat="41.79538" lon="9.19785">
        <ele>1047.97</ele>
        <time>2015-09-15T09:00:20Z</time>
      </trkpt>
      <trkpt lat="41.79542" lon="9.19802">
        <ele>1047.49</ele>
        <time>2015-09-15T09:00:35Z</time>
      </trkpt>
      <trkpt lat="41.79543" lon="9.19817">
        <ele>1047.01</ele>
        <time>2015-09-15T09:00:48Z</time>
      </trkpt>
      <trkpt lat="41.79548" lon="9.19838">
        <ele>1047.01</ele>
        <time>2015-09-15T09:01:04Z</time>
      </trkpt>
      <trkpt lat="41.79556" lon="9.19859">
        <ele>1046.53</ele>
        <time>2015-09-15T09:01:22Z</time>
      </trkpt>
      <trkpt lat="41.79569" lon="9.19868">
        <ele>1048.45</ele>
        <time>2015-09-15T09:01:41Z</time>
      </trkpt>
      <trkpt lat="41.79573" lon="9.19882">
        <ele>1049.42</ele>
        <time>2015-09-15T09:01:55Z</time>
      </trkpt>
      <trkpt lat="41.79585" lon="9.19894">
        <ele>1049.9</ele>
        <time>2015-09-15T09:02:13Z</time>
      </trkpt>
      <trkpt lat="41.79593" lon="9.19915">
        <ele>1049.42</ele>
        <time>2015-09-15T09:02:32Z</time>
      </trkpt>
      <trkpt lat="41.79609" lon="9.19933">
        <ele>1049.42</ele>
        <time>2015-09-15T09:02:56Z</time>
      </trkpt>
      <trkpt lat="41.79613" lon="9.19943">
        <ele>1047.97</ele>
        <time>2015-09-15T09:03:05Z</time>
      </trkpt>
      <trkpt lat="41.79618" lon="9.19968">
        <ele>1044.61</ele>
        <time>2015-09-15T09:03:27Z</time>
      </trkpt>
      <trkpt lat="41.79618" lon="9.1998">
        <ele>1046.05</ele>
        <time>2015-09-15T09:03:46Z</time>
      </trkpt>
      <trkpt lat="41.79618" lon="9.1998">
        <ele>1046.05</ele>
        <time>2015-09-15T09:03:47Z</time>
      </trkpt>
      <trkpt lat="41.79614" lon="9.1999">
        <ele>1047.49</ele>
        <time>2015-09-15T09:04:01Z</time>
      </trkpt>
      <trkpt lat="41.79612" lon="9.20002">
        <ele>1048.94</ele>
        <time>2015-09-15T09:04:17Z</time>
      </trkpt>
      <trkpt lat="41.79612" lon="9.2001">
        <ele>1047.49</ele>
        <time>2015-09-15T09:04:24Z</time>
      </trkpt>
      <trkpt lat="41.79609" lon="9.2003">
        <ele>1047.49</ele>
        <time>2015-09-15T09:04:44Z</time>
      </trkpt>
      <trkpt lat="41.79599" lon="9.20043">
        <ele>1047.49</ele>
        <time>2015-09-15T09:05:02Z</time>
      </trkpt>
      <trkpt lat="41.79584" lon="9.20056">
        <ele>1048.94</ele>
        <time>2015-09-15T09:05:24Z</time>
      </trkpt>
      <trkpt lat="41.79569" lon="9.2007">
        <ele>1049.42</ele>
        <time>2015-09-15T09:05:47Z</time>
      </trkpt>
      <trkpt lat="41.79551" lon="9.20082">
        <ele>1049.9</ele>
        <time>2015-09-15T09:06:07Z</time>
      </trkpt>
      <trkpt lat="41.79533" lon="9.20094">
        <ele>1049.42</ele>
        <time>2015-09-15T09:06:27Z</time>
      </trkpt>
      <trkpt lat="41.79518" lon="9.20105">
        <ele>1049.42</ele>
        <time>2015-09-15T09:06:48Z</time>
      </trkpt>
      <trkpt lat="41.79503" lon="9.20109">
        <ele>1050.38</ele>
        <time>2015-09-15T09:07:10Z</time>
      </trkpt>
      <trkpt lat="41.79491" lon="9.20114">
        <ele>1051.82</ele>
        <time>2015-09-15T09:07:29Z</time>
      </trkpt>
      <trkpt lat="41.79484" lon="9.20117">
        <ele>1053.26</ele>
        <time>2015-09-15T09:07:45Z</time>
      </trkpt>
      <trkpt lat="41.79471" lon="9.20119">
        <ele>1054.22</ele>
        <time>2015-09-15T09:08:05Z</time>
      </trkpt>
      <trkpt lat="41.79464" lon="9.20134">
        <ele>1054.22</ele>
        <time>2015-09-15T09:08:23Z</time>
      </trkpt>
      <trkpt lat="41.79458" lon="9.20144">
        <ele>1052.78</ele>
        <time>2015-09-15T09:08:34Z</time>
      </trkpt>
      <trkpt lat="41.79449" lon="9.20164">
        <ele>1050.86</ele>
        <time>2015-09-15T09:08:53Z</time>
      </trkpt>
      <trkpt lat="41.79447" lon="9.20186">
        <ele>1047.97</ele>
        <time>2015-09-15T09:09:13Z</time>
      </trkpt>
      <trkpt lat="41.7945" lon="9.20207">
        <ele>1047.01</ele>
        <time>2015-09-15T09:09:32Z</time>
      </trkpt>
      <trkpt lat="41.79455" lon="9.20213">
        <ele>1046.53</ele>
        <time>2015-09-15T09:10:01Z</time>
      </trkpt>
      <trkpt lat="41.79466" lon="9.20218">
        <ele>1045.09</ele>
        <time>2015-09-15T09:10:17Z</time>
      </trkpt>
      <trkpt lat="41.79478" lon="9.20225">
        <ele>1046.53</ele>
        <time>2015-09-15T09:10:35Z</time>
      </trkpt>
      <trkpt lat="41.79485" lon="9.20242">
        <ele>1048.45</ele>
        <time>2015-09-15T09:10:53Z</time>
      </trkpt>
      <trkpt lat="41.79487" lon="9.20256">
        <ele>1049.42</ele>
        <time>2015-09-15T09:11:12Z</time>
      </trkpt>
      <trkpt lat="41.79494" lon="9.20269">
        <ele>1047.49</ele>
        <time>2015-09-15T09:11:31Z</time>
      </trkpt>
      <trkpt lat="41.79504" lon="9.20283">
        <ele>1046.05</ele>
        <time>2015-09-15T09:11:50Z</time>
      </trkpt>
      <trkpt lat="41.79517" lon="9.20293">
        <ele>1044.61</ele>
        <time>2015-09-15T09:12:07Z</time>
      </trkpt>
      <trkpt lat="41.79529" lon="9.20302">
        <ele>1044.13</ele>
        <time>2015-09-15T09:12:25Z</time>
      </trkpt>
      <trkpt lat="41.79545" lon="9.20313">
        <ele>1045.57</ele>
        <time>2015-09-15T09:12:43Z</time>
      </trkpt>
      <trkpt lat="41.79558" lon="9.20317">
        <ele>1046.05</ele>
        <time>2015-09-15T09:13:00Z</time>
      </trkpt>
      <trkpt lat="41.79573" lon="9.20321">
        <ele>1047.49</ele>
        <time>2015-09-15T09:13:20Z</time>
      </trkpt>
      <trkpt lat="41.79584" lon="9.20323">
        <ele>1048.45</ele>
        <time>2015-09-15T09:13:37Z</time>
      </trkpt>
      <trkpt lat="41.79594" lon="9.2033">
        <ele>1048.45</ele>
        <time>2015-09-15T09:13:58Z</time>
      </trkpt>
      <trkpt lat="41.79608" lon="9.20344">
        <ele>1046.53</ele>
        <time>2015-09-15T09:14:21Z</time>
      </trkpt>
      <trkpt lat="41.79619" lon="9.20353">
        <ele>1046.53</ele>
        <time>2015-09-15T09:14:40Z</time>
      </trkpt>
      <trkpt lat="41.79623" lon="9.20358">
        <ele>1047.49</ele>
        <time>2015-09-15T09:14:49Z</time>
      </trkpt>
      <trkpt lat="41.79627" lon="9.20367">
        <ele>1046.53</ele>
        <time>2015-09-15T09:14:59Z</time>
      </trkpt>
      <trkpt lat="41.79638" lon="9.20383">
        <ele>1045.09</ele>
        <time>2015-09-15T09:15:17Z</time>
      </trkpt>
      <trkpt lat="41.7965" lon="9.20396">
        <ele>1043.65</ele>
        <time>2015-09-15T09:15:36Z</time>
      </trkpt>
      <trkpt lat="41.79662" lon="9.20408">
        <ele>1041.25</ele>
        <time>2015-09-15T09:15:55Z</time>
      </trkpt>
      <trkpt lat="41.79675" lon="9.20418">
        <ele>1039.32</ele>
        <time>2015-09-15T09:16:14Z</time>
      </trkpt>
      <trkpt lat="41.79689" lon="9.20427">
        <ele>1039.8</ele>
        <time>2015-09-15T09:16:33Z</time>
      </trkpt>
      <trkpt lat="41.79697" lon="9.20434">
        <ele>1036.92</ele>
        <time>2015-09-15T09:16:50Z</time>
      </trkpt>
      <trkpt lat="41.79708" lon="9.20443">
        <ele>1035.48</ele>
        <time>2015-09-15T09:17:09Z</time>
      </trkpt>
      <trkpt lat="41.79722" lon="9.20449">
        <ele>1036.44</ele>
        <time>2015-09-15T09:17:27Z</time>
      </trkpt>
      <trkpt lat="41.79732" lon="9.2045">
        <ele>1037.88</ele>
        <time>2015-09-15T09:17:45Z</time>
      </trkpt>
      <trkpt lat="41.79744" lon="9.20451">
        <ele>1036.44</ele>
        <time>2015-09-15T09:18:02Z</time>
      </trkpt>
      <trkpt lat="41.79754" lon="9.20457">
        <ele>1035.96</ele>
        <time>2015-09-15T09:18:19Z</time>
      </trkpt>
      <trkpt lat="41.79763" lon="9.2047">
        <ele>1035.96</ele>
        <time>2015-09-15T09:18:37Z</time>
      </trkpt>
      <trkpt lat="41.7977" lon="9.2048">
        <ele>1038.36</ele>
        <time>2015-09-15T09:18:56Z</time>
      </trkpt>
      <trkpt lat="41.79779" lon="9.20488">
        <ele>1036.92</ele>
        <time>2015-09-15T09:19:09Z</time>
      </trkpt>
      <trkpt lat="41.79793" lon="9.20501">
        <ele>1035.96</ele>
        <time>2015-09-15T09:19:31Z</time>
      </trkpt>
      <trkpt lat="41.79801" lon="9.20513">
        <ele>1035.96</ele>
        <time>2015-09-15T09:19:48Z</time>
      </trkpt>
      <trkpt lat="41.79811" lon="9.2052">
        <ele>1035</ele>
        <time>2015-09-15T09:20:07Z</time>
      </trkpt>
      <trkpt lat="41.79819" lon="9.20537">
        <ele>1031.63</ele>
        <time>2015-09-15T09:20:30Z</time>
      </trkpt>
      <trkpt lat="41.79824" lon="9.20544">
        <ele>1028.75</ele>
        <time>2015-09-15T09:20:49Z</time>
      </trkpt>
      <trkpt lat="41.79827" lon="9.20554">
        <ele>1025.38</ele>
        <time>2015-09-15T09:21:07Z</time>
      </trkpt>
      <trkpt lat="41.79839" lon="9.20558">
        <ele>1024.42</ele>
        <time>2015-09-15T09:21:29Z</time>
      </trkpt>
      <trkpt lat="41.79854" lon="9.20562">
        <ele>1026.83</ele>
        <time>2015-09-15T09:21:50Z</time>
      </trkpt>
      <trkpt lat="41.79857" lon="9.20553">
        <ele>1029.71</ele>
        <time>2015-09-15T09:22:08Z</time>
      </trkpt>
      <trkpt lat="41.79863" lon="9.20552">
        <ele>1032.59</ele>
        <time>2015-09-15T09:22:35Z</time>
      </trkpt>
      <trkpt lat="41.7988" lon="9.20551">
        <ele>1035</ele>
        <time>2015-09-15T09:23:00Z</time>
      </trkpt>
      <trkpt lat="41.79888" lon="9.20559">
        <ele>1036.44</ele>
        <time>2015-09-15T09:23:24Z</time>
      </trkpt>
      <trkpt lat="41.79895" lon="9.2056">
        <ele>1038.36</ele>
        <time>2015-09-15T09:23:44Z</time>
      </trkpt>
      <trkpt lat="41.79898" lon="9.20571">
        <ele>1037.4</ele>
        <time>2015-09-15T09:24:02Z</time>
      </trkpt>
      <trkpt lat="41.79898" lon="9.20586">
        <ele>1035</ele>
        <time>2015-09-15T09:24:30Z</time>
      </trkpt>
      <trkpt lat="41.799" lon="9.20587">
        <ele>1036.44</ele>
        <time>2015-09-15T09:24:36Z</time>
      </trkpt>
      <trkpt lat="41.79906" lon="9.2059">
        <ele>1039.32</ele>
        <time>2015-09-15T09:24:58Z</time>
      </trkpt>
      <trkpt lat="41.79903" lon="9.20605">
        <ele>1039.8</ele>
        <time>2015-09-15T09:25:26Z</time>
      </trkpt>
      <trkpt lat="41.79902" lon="9.20618">
        <ele>1039.8</ele>
        <time>2015-09-15T09:25:52Z</time>
      </trkpt>
      <trkpt lat="41.79908" lon="9.20625">
        <ele>1039.8</ele>
        <time>2015-09-15T09:26:20Z</time>
      </trkpt>
      <trkpt lat="41.79909" lon="9.20628">
        <ele>1038.36</ele>
        <time>2015-09-15T09:26:48Z</time>
      </trkpt>
      <trkpt lat="41.79902" lon="9.20627">
        <ele>1037.4</ele>
        <time>2015-09-15T09:27:16Z</time>
      </trkpt>
      <trkpt lat="41.79906" lon="9.20625">
        <ele>1038.84</ele>
        <time>2015-09-15T09:27:40Z</time>
      </trkpt>
      <trkpt lat="41.79907" lon="9.20615">
        <ele>1039.32</ele>
        <time>2015-09-15T09:28:07Z</time>
      </trkpt>
      <trkpt lat="41.79902" lon="9.20615">
        <ele>1038.36</ele>
        <time>2015-09-15T09:28:39Z</time>
      </trkpt>
      <trkpt lat="41.79902" lon="9.20616">
        <ele>1038.36</ele>
        <time>2015-09-15T09:29:06Z</time>
      </trkpt>
      <trkpt lat="41.79905" lon="9.20622">
        <ele>1038.36</ele>
        <time>2015-09-15T09:29:33Z</time>
      </trkpt>
      <trkpt lat="41.79903" lon="9.20617">
        <ele>1037.88</ele>
        <time>2015-09-15T09:30:06Z</time>
      </trkpt>
      <trkpt lat="41.79904" lon="9.20625">
        <ele>1037.88</ele>
        <time>2015-09-15T09:30:35Z</time>
      </trkpt>
      <trkpt lat="41.79898" lon="9.20623">
        <ele>1037.88</ele>
        <time>2015-09-15T09:31:01Z</time>
      </trkpt>
      <trkpt lat="41.79902" lon="9.20627">
        <ele>1037.88</ele>
        <time>2015-09-15T09:31:25Z</time>
      </trkpt>
      <trkpt lat="41.79906" lon="9.20626">
        <ele>1039.32</ele>
        <time>2015-09-15T09:31:55Z</time>
      </trkpt>
      <trkpt lat="41.79906" lon="9.20627">
        <ele>1039.32</ele>
        <time>2015-09-15T09:32:24Z</time>
      </trkpt>
      <trkpt lat="41.79895" lon="9.20628">
        <ele>1039.32</ele>
        <time>2015-09-15T09:32:50Z</time>
      </trkpt>
      <trkpt lat="41.79899" lon="9.2063">
        <ele>1038.84</ele>
        <time>2015-09-15T09:33:27Z</time>
      </trkpt>
      <trkpt lat="41.79901" lon="9.20623">
        <ele>1038.84</ele>
        <time>2015-09-15T09:33:54Z</time>
      </trkpt>
      <trkpt lat="41.799" lon="9.20621">
        <ele>1038.36</ele>
        <time>2015-09-15T09:34:20Z</time>
      </trkpt>
      <trkpt lat="41.79904" lon="9.20613">
        <ele>1038.84</ele>
        <time>2015-09-15T09:34:50Z</time>
      </trkpt>
      <trkpt lat="41.7991" lon="9.20615">
        <ele>1038.36</ele>
        <time>2015-09-15T09:35:22Z</time>
      </trkpt>
      <trkpt lat="41.79906" lon="9.20626">
        <ele>1039.8</ele>
        <time>2015-09-15T09:35:56Z</time>
      </trkpt>
      <trkpt lat="41.79908" lon="9.2062">
        <ele>1039.8</ele>
        <time>2015-09-15T09:36:25Z</time>
      </trkpt>
      <trkpt lat="41.79903" lon="9.20628">
        <ele>1040.76</ele>
        <time>2015-09-15T09:36:49Z</time>
      </trkpt>
      <trkpt lat="41.79906" lon="9.20627">
        <ele>1040.76</ele>
        <time>2015-09-15T09:37:21Z</time>
      </trkpt>
      <trkpt lat="41.79909" lon="9.20623">
        <ele>1041.25</ele>
        <time>2015-09-15T09:37:53Z</time>
      </trkpt>
      <trkpt lat="41.79908" lon="9.2064">
        <ele>1041.25</ele>
        <time>2015-09-15T09:38:23Z</time>
      </trkpt>
      <trkpt lat="41.79909" lon="9.20646">
        <ele>1041.25</ele>
        <time>2015-09-15T09:38:29Z</time>
      </trkpt>
      <trkpt lat="41.79904" lon="9.20634">
        <ele>1041.25</ele>
        <time>2015-09-15T09:38:50Z</time>
      </trkpt>
      <trkpt lat="41.79902" lon="9.20635">
        <ele>1041.73</ele>
        <time>2015-09-15T09:39:11Z</time>
      </trkpt>
      <trkpt lat="41.79902" lon="9.20635">
        <ele>1041.73</ele>
        <time>2015-09-15T09:39:12Z</time>
      </trkpt>
      <trkpt lat="41.79899" lon="9.20637">
        <ele>1044.13</ele>
        <time>2015-09-15T09:39:37Z</time>
      </trkpt>
      <trkpt lat="41.79899" lon="9.20646">
        <ele>1047.01</ele>
        <time>2015-09-15T09:40:03Z</time>
      </trkpt>
      <trkpt lat="41.79895" lon="9.20658">
        <ele>1048.94</ele>
        <time>2015-09-15T09:40:26Z</time>
      </trkpt>
      <trkpt lat="41.79899" lon="9.20665">
        <ele>1051.82</ele>
        <time>2015-09-15T09:40:49Z</time>
      </trkpt>
      <trkpt lat="41.79904" lon="9.20671">
        <ele>1053.74</ele>
        <time>2015-09-15T09:41:11Z</time>
      </trkpt>
      <trkpt lat="41.79899" lon="9.20677">
        <ele>1054.7</ele>
        <time>2015-09-15T09:41:40Z</time>
      </trkpt>
      <trkpt lat="41.799" lon="9.20683">
        <ele>1057.59</ele>
        <time>2015-09-15T09:42:01Z</time>
      </trkpt>
      <trkpt lat="41.79897" lon="9.20681">
        <ele>1059.51</ele>
        <time>2015-09-15T09:42:22Z</time>
      </trkpt>
      <trkpt lat="41.7989" lon="9.20684">
        <ele>1062.39</ele>
        <time>2015-09-15T09:42:45Z</time>
      </trkpt>
      <trkpt lat="41.79881" lon="9.20687">
        <ele>1064.8</ele>
        <time>2015-09-15T09:43:05Z</time>
      </trkpt>
      <trkpt lat="41.79872" lon="9.20689">
        <ele>1066.24</ele>
        <time>2015-09-15T09:43:23Z</time>
      </trkpt>
      <trkpt lat="41.79866" lon="9.20693">
        <ele>1067.68</ele>
        <time>2015-09-15T09:43:40Z</time>
      </trkpt>
      <trkpt lat="41.7986" lon="9.20693">
        <ele>1069.6</ele>
        <time>2015-09-15T09:44:00Z</time>
      </trkpt>
      <trkpt lat="41.79858" lon="9.20697">
        <ele>1071.53</ele>
        <time>2015-09-15T09:44:20Z</time>
      </trkpt>
      <trkpt lat="41.79849" lon="9.20696">
        <ele>1074.89</ele>
        <time>2015-09-15T09:44:42Z</time>
      </trkpt>
      <trkpt lat="41.79839" lon="9.20698">
        <ele>1075.37</ele>
        <time>2015-09-15T09:44:57Z</time>
      </trkpt>
      <trkpt lat="41.79828" lon="9.20696">
        <ele>1076.81</ele>
        <time>2015-09-15T09:45:17Z</time>
      </trkpt>
      <trkpt lat="41.79815" lon="9.20702">
        <ele>1077.29</ele>
        <time>2015-09-15T09:45:36Z</time>
      </trkpt>
      <trkpt lat="41.79804" lon="9.20711">
        <ele>1078.26</ele>
        <time>2015-09-15T09:45:51Z</time>
      </trkpt>
      <trkpt lat="41.79798" lon="9.20713">
        <ele>1080.66</ele>
        <time>2015-09-15T09:46:08Z</time>
      </trkpt>
      <trkpt lat="41.7979" lon="9.20716">
        <ele>1082.1</ele>
        <time>2015-09-15T09:46:27Z</time>
      </trkpt>
      <trkpt lat="41.79785" lon="9.20715">
        <ele>1083.06</ele>
        <time>2015-09-15T09:46:46Z</time>
      </trkpt>
      <trkpt lat="41.79779" lon="9.20714">
        <ele>1080.66</ele>
        <time>2015-09-15T09:47:02Z</time>
      </trkpt>
      <trkpt lat="41.79768" lon="9.2071">
        <ele>1079.22</ele>
        <time>2015-09-15T09:47:20Z</time>
      </trkpt>
      <trkpt lat="41.79765" lon="9.20716">
        <ele>1080.18</ele>
        <time>2015-09-15T09:47:34Z</time>
      </trkpt>
      <trkpt lat="41.79758" lon="9.20708">
        <ele>1082.1</ele>
        <time>2015-09-15T09:47:53Z</time>
      </trkpt>
      <trkpt lat="41.79753" lon="9.20714">
        <ele>1083.54</ele>
        <time>2015-09-15T09:48:11Z</time>
      </trkpt>
      <trkpt lat="41.79746" lon="9.20714">
        <ele>1084.99</ele>
        <time>2015-09-15T09:48:30Z</time>
      </trkpt>
      <trkpt lat="41.79739" lon="9.20708">
        <ele>1085.47</ele>
        <time>2015-09-15T09:48:48Z</time>
      </trkpt>
      <trkpt lat="41.79737" lon="9.20705">
        <ele>1084.02</ele>
        <time>2015-09-15T09:48:51Z</time>
      </trkpt>
      <trkpt lat="41.79728" lon="9.20687">
        <ele>1083.06</ele>
        <time>2015-09-15T09:49:09Z</time>
      </trkpt>
      <trkpt lat="41.79721" lon="9.20679">
        <ele>1081.14</ele>
        <time>2015-09-15T09:49:26Z</time>
      </trkpt>
      <trkpt lat="41.79714" lon="9.20665">
        <ele>1080.18</ele>
        <time>2015-09-15T09:49:44Z</time>
      </trkpt>
      <trkpt lat="41.7971" lon="9.207">
        <ele>1083.06</ele>
        <time>2015-09-15T09:50:02Z</time>
      </trkpt>
      <trkpt lat="41.79707" lon="9.20718">
        <ele>1081.14</ele>
        <time>2015-09-15T09:50:19Z</time>
      </trkpt>
      <trkpt lat="41.79702" lon="9.2074">
        <ele>1079.22</ele>
        <time>2015-09-15T09:50:40Z</time>
      </trkpt>
      <trkpt lat="41.79696" lon="9.20747">
        <ele>1076.81</ele>
        <time>2015-09-15T09:50:57Z</time>
      </trkpt>
      <trkpt lat="41.79688" lon="9.20755">
        <ele>1077.29</ele>
        <time>2015-09-15T09:51:18Z</time>
      </trkpt>
      <trkpt lat="41.7968" lon="9.2076">
        <ele>1076.33</ele>
        <time>2015-09-15T09:51:39Z</time>
      </trkpt>
      <trkpt lat="41.79672" lon="9.20767">
        <ele>1075.85</ele>
        <time>2015-09-15T09:51:56Z</time>
      </trkpt>
      <trkpt lat="41.79661" lon="9.20787">
        <ele>1075.85</ele>
        <time>2015-09-15T09:52:19Z</time>
      </trkpt>
      <trkpt lat="41.79651" lon="9.20794">
        <ele>1072.97</ele>
        <time>2015-09-15T09:52:38Z</time>
      </trkpt>
      <trkpt lat="41.79638" lon="9.20806">
        <ele>1069.6</ele>
        <time>2015-09-15T09:52:57Z</time>
      </trkpt>
      <trkpt lat="41.79629" lon="9.20816">
        <ele>1066.72</ele>
        <time>2015-09-15T09:53:18Z</time>
      </trkpt>
      <trkpt lat="41.7962" lon="9.20827">
        <ele>1063.36</ele>
        <time>2015-09-15T09:53:38Z</time>
      </trkpt>
      <trkpt lat="41.79614" lon="9.20834">
        <ele>1059.99</ele>
        <time>2015-09-15T09:53:52Z</time>
      </trkpt>
      <trkpt lat="41.79605" lon="9.20846">
        <ele>1057.11</ele>
        <time>2015-09-15T09:54:10Z</time>
      </trkpt>
      <trkpt lat="41.79593" lon="9.20858">
        <ele>1053.74</ele>
        <time>2015-09-15T09:54:28Z</time>
      </trkpt>
      <trkpt lat="41.7959" lon="9.20867">
        <ele>1050.38</ele>
        <time>2015-09-15T09:54:45Z</time>
      </trkpt>
      <trkpt lat="41.79586" lon="9.2088">
        <ele>1047.01</ele>
        <time>2015-09-15T09:55:02Z</time>
      </trkpt>
      <trkpt lat="41.79581" lon="9.20897">
        <ele>1045.57</ele>
        <time>2015-09-15T09:55:21Z</time>
      </trkpt>
      <trkpt lat="41.79569" lon="9.20905">
        <ele>1043.17</ele>
        <time>2015-09-15T09:55:39Z</time>
      </trkpt>
      <trkpt lat="41.79556" lon="9.20908">
        <ele>1040.76</ele>
        <time>2015-09-15T09:55:56Z</time>
      </trkpt>
      <trkpt lat="41.79548" lon="9.20905">
        <ele>1037.4</ele>
        <time>2015-09-15T09:56:10Z</time>
      </trkpt>
      <trkpt lat="41.79542" lon="9.20913">
        <ele>1035.48</ele>
        <time>2015-09-15T09:56:27Z</time>
      </trkpt>
      <trkpt lat="41.79544" lon="9.20925">
        <ele>1034.04</ele>
        <time>2015-09-15T09:56:46Z</time>
      </trkpt>
      <trkpt lat="41.79543" lon="9.20943">
        <ele>1032.11</ele>
        <time>2015-09-15T09:57:06Z</time>
      </trkpt>
      <trkpt lat="41.7954" lon="9.2095">
        <ele>1034.04</ele>
        <time>2015-09-15T09:57:22Z</time>
      </trkpt>
      <trkpt lat="41.79524" lon="9.20947">
        <ele>1035.48</ele>
        <time>2015-09-15T09:57:46Z</time>
      </trkpt>
      <trkpt lat="41.79515" lon="9.20957">
        <ele>1035.96</ele>
        <time>2015-09-15T09:58:03Z</time>
      </trkpt>
      <trkpt lat="41.79508" lon="9.20965">
        <ele>1037.4</ele>
        <time>2015-09-15T09:58:19Z</time>
      </trkpt>
      <trkpt lat="41.79496" lon="9.20966">
        <ele>1038.36</ele>
        <time>2015-09-15T09:58:35Z</time>
      </trkpt>
      <trkpt lat="41.79485" lon="9.20972">
        <ele>1038.36</ele>
        <time>2015-09-15T09:58:51Z</time>
      </trkpt>
      <trkpt lat="41.7948" lon="9.20975">
        <ele>1036.92</ele>
        <time>2015-09-15T09:58:57Z</time>
      </trkpt>
      <trkpt lat="41.79469" lon="9.20982">
        <ele>1035.48</ele>
        <time>2015-09-15T09:59:14Z</time>
      </trkpt>
      <trkpt lat="41.79458" lon="9.20978">
        <ele>1037.4</ele>
        <time>2015-09-15T09:59:30Z</time>
      </trkpt>
      <trkpt lat="41.79445" lon="9.20981">
        <ele>1035.96</ele>
        <time>2015-09-15T09:59:45Z</time>
      </trkpt>
      <trkpt lat="41.79434" lon="9.20988">
        <ele>1033.07</ele>
        <time>2015-09-15T10:00:04Z</time>
      </trkpt>
      <trkpt lat="41.79422" lon="9.20997">
        <ele>1029.71</ele>
        <time>2015-09-15T10:00:25Z</time>
      </trkpt>
      <trkpt lat="41.79421" lon="9.20997">
        <ele>1029.71</ele>
        <time>2015-09-15T10:00:26Z</time>
      </trkpt>
      <trkpt lat="41.79407" lon="9.21004">
        <ele>1027.79</ele>
        <time>2015-09-15T10:00:50Z</time>
      </trkpt>
      <trkpt lat="41.79395" lon="9.21014">
        <ele>1027.31</ele>
        <time>2015-09-15T10:01:11Z</time>
      </trkpt>
      <trkpt lat="41.79384" lon="9.2102">
        <ele>1026.83</ele>
        <time>2015-09-15T10:01:30Z</time>
      </trkpt>
      <trkpt lat="41.79373" lon="9.21023">
        <ele>1029.23</ele>
        <time>2015-09-15T10:01:50Z</time>
      </trkpt>
      <trkpt lat="41.7936" lon="9.21025">
        <ele>1029.23</ele>
        <time>2015-09-15T10:02:08Z</time>
      </trkpt>
      <trkpt lat="41.79348" lon="9.2103">
        <ele>1029.71</ele>
        <time>2015-09-15T10:02:26Z</time>
      </trkpt>
      <trkpt lat="41.79345" lon="9.21029">
        <ele>1028.75</ele>
        <time>2015-09-15T10:02:33Z</time>
      </trkpt>
      <trkpt lat="41.79332" lon="9.21022">
        <ele>1026.34</ele>
        <time>2015-09-15T10:02:52Z</time>
      </trkpt>
      <trkpt lat="41.79318" lon="9.21018">
        <ele>1025.86</ele>
        <time>2015-09-15T10:03:08Z</time>
      </trkpt>
      <trkpt lat="41.79308" lon="9.21018">
        <ele>1027.31</ele>
        <time>2015-09-15T10:03:24Z</time>
      </trkpt>
      <trkpt lat="41.79303" lon="9.21024">
        <ele>1028.27</ele>
        <time>2015-09-15T10:03:38Z</time>
      </trkpt>
      <trkpt lat="41.79301" lon="9.2102">
        <ele>1026.83</ele>
        <time>2015-09-15T10:03:44Z</time>
      </trkpt>
      <trkpt lat="41.79288" lon="9.21018">
        <ele>1026.34</ele>
        <time>2015-09-15T10:04:02Z</time>
      </trkpt>
      <trkpt lat="41.79277" lon="9.2102">
        <ele>1026.34</ele>
        <time>2015-09-15T10:04:23Z</time>
      </trkpt>
      <trkpt lat="41.7927" lon="9.21021">
        <ele>1027.79</ele>
        <time>2015-09-15T10:04:32Z</time>
      </trkpt>
      <trkpt lat="41.79258" lon="9.21022">
        <ele>1027.79</ele>
        <time>2015-09-15T10:04:51Z</time>
      </trkpt>
      <trkpt lat="41.79256" lon="9.21022">
        <ele>1026.34</ele>
        <time>2015-09-15T10:04:54Z</time>
      </trkpt>
      <trkpt lat="41.79244" lon="9.21026">
        <ele>1024.42</ele>
        <time>2015-09-15T10:05:15Z</time>
      </trkpt>
      <trkpt lat="41.79234" lon="9.21035">
        <ele>1024.9</ele>
        <time>2015-09-15T10:05:33Z</time>
      </trkpt>
      <trkpt lat="41.79223" lon="9.21039">
        <ele>1024.9</ele>
        <time>2015-09-15T10:05:54Z</time>
      </trkpt>
      <trkpt lat="41.79215" lon="9.21041">
        <ele>1026.83</ele>
        <time>2015-09-15T10:06:13Z</time>
      </trkpt>
      <trkpt lat="41.79209" lon="9.21053">
        <ele>1028.27</ele>
        <time>2015-09-15T10:06:34Z</time>
      </trkpt>
      <trkpt lat="41.79196" lon="9.21047">
        <ele>1029.23</ele>
        <time>2015-09-15T10:06:55Z</time>
      </trkpt>
      <trkpt lat="41.79192" lon="9.21052">
        <ele>1032.59</ele>
        <time>2015-09-15T10:07:11Z</time>
      </trkpt>
      <trkpt lat="41.79188" lon="9.21055">
        <ele>1033.55</ele>
        <time>2015-09-15T10:07:27Z</time>
      </trkpt>
      <trkpt lat="41.79181" lon="9.21053">
        <ele>1035.48</ele>
        <time>2015-09-15T10:07:41Z</time>
      </trkpt>
      <trkpt lat="41.79179" lon="9.21058">
        <ele>1037.88</ele>
        <time>2015-09-15T10:08:00Z</time>
      </trkpt>
      <trkpt lat="41.79175" lon="9.21066">
        <ele>1040.28</ele>
        <time>2015-09-15T10:08:20Z</time>
      </trkpt>
      <trkpt lat="41.79172" lon="9.21078">
        <ele>1041.73</ele>
        <time>2015-09-15T10:08:38Z</time>
      </trkpt>
      <trkpt lat="41.7917" lon="9.21079">
        <ele>1040.76</ele>
        <time>2015-09-15T10:08:42Z</time>
      </trkpt>
      <trkpt lat="41.79167" lon="9.21084">
        <ele>1039.8</ele>
        <time>2015-09-15T10:08:49Z</time>
      </trkpt>
      <trkpt lat="41.79159" lon="9.21096">
        <ele>1039.32</ele>
        <time>2015-09-15T10:09:06Z</time>
      </trkpt>
      <trkpt lat="41.79159" lon="9.21099">
        <ele>1040.76</ele>
        <time>2015-09-15T10:09:10Z</time>
      </trkpt>
      <trkpt lat="41.7915" lon="9.21107">
        <ele>1040.76</ele>
        <time>2015-09-15T10:09:28Z</time>
      </trkpt>
      <trkpt lat="41.79145" lon="9.21112">
        <ele>1041.25</ele>
        <time>2015-09-15T10:09:46Z</time>
      </trkpt>
      <trkpt lat="41.7914" lon="9.2112">
        <ele>1042.21</ele>
        <time>2015-09-15T10:10:02Z</time>
      </trkpt>
      <trkpt lat="41.79135" lon="9.21126">
        <ele>1043.65</ele>
        <time>2015-09-15T10:10:18Z</time>
      </trkpt>
      <trkpt lat="41.79132" lon="9.21133">
        <ele>1045.57</ele>
        <time>2015-09-15T10:10:34Z</time>
      </trkpt>
      <trkpt lat="41.79127" lon="9.21142">
        <ele>1047.01</ele>
        <time>2015-09-15T10:10:52Z</time>
      </trkpt>
      <trkpt lat="41.79128" lon="9.21159">
        <ele>1046.53</ele>
        <time>2015-09-15T10:11:11Z</time>
      </trkpt>
      <trkpt lat="41.79135" lon="9.21176">
        <ele>1046.53</ele>
        <time>2015-09-15T10:11:28Z</time>
      </trkpt>
      <trkpt lat="41.79136" lon="9.21188">
        <ele>1047.49</ele>
        <time>2015-09-15T10:11:43Z</time>
      </trkpt>
      <trkpt lat="41.79141" lon="9.21207">
        <ele>1049.42</ele>
        <time>2015-09-15T10:12:07Z</time>
      </trkpt>
      <trkpt lat="41.79149" lon="9.2123">
        <ele>1050.38</ele>
        <time>2015-09-15T10:12:25Z</time>
      </trkpt>
      <trkpt lat="41.79152" lon="9.21245">
        <ele>1051.34</ele>
        <time>2015-09-15T10:12:43Z</time>
      </trkpt>
      <trkpt lat="41.79161" lon="9.21263">
        <ele>1053.26</ele>
        <time>2015-09-15T10:13:04Z</time>
      </trkpt>
      <trkpt lat="41.79172" lon="9.21273">
        <ele>1053.74</ele>
        <time>2015-09-15T10:13:24Z</time>
      </trkpt>
      <trkpt lat="41.79176" lon="9.2128">
        <ele>1052.3</ele>
        <time>2015-09-15T10:13:34Z</time>
      </trkpt>
      <trkpt lat="41.79187" lon="9.21287">
        <ele>1051.82</ele>
        <time>2015-09-15T10:13:51Z</time>
      </trkpt>
      <trkpt lat="41.79197" lon="9.213">
        <ele>1050.38</ele>
        <time>2015-09-15T10:14:11Z</time>
      </trkpt>
      <trkpt lat="41.79206" lon="9.21308">
        <ele>1049.9</ele>
        <time>2015-09-15T10:14:31Z</time>
      </trkpt>
      <trkpt lat="41.79216" lon="9.21318">
        <ele>1049.42</ele>
        <time>2015-09-15T10:14:51Z</time>
      </trkpt>
      <trkpt lat="41.79223" lon="9.21325">
        <ele>1049.42</ele>
        <time>2015-09-15T10:15:07Z</time>
      </trkpt>
      <trkpt lat="41.79231" lon="9.21333">
        <ele>1050.86</ele>
        <time>2015-09-15T10:15:23Z</time>
      </trkpt>
      <trkpt lat="41.79236" lon="9.21344">
        <ele>1051.82</ele>
        <time>2015-09-15T10:15:42Z</time>
      </trkpt>
      <trkpt lat="41.79241" lon="9.21351">
        <ele>1052.3</ele>
        <time>2015-09-15T10:16:00Z</time>
      </trkpt>
      <trkpt lat="41.79246" lon="9.21363">
        <ele>1053.74</ele>
        <time>2015-09-15T10:16:19Z</time>
      </trkpt>
      <trkpt lat="41.79248" lon="9.21375">
        <ele>1053.26</ele>
        <time>2015-09-15T10:16:32Z</time>
      </trkpt>
      <trkpt lat="41.79251" lon="9.21393">
        <ele>1053.74</ele>
        <time>2015-09-15T10:16:51Z</time>
      </trkpt>
      <trkpt lat="41.7926" lon="9.21398">
        <ele>1054.22</ele>
        <time>2015-09-15T10:17:08Z</time>
      </trkpt>
      <trkpt lat="41.79268" lon="9.21404">
        <ele>1055.18</ele>
        <time>2015-09-15T10:17:24Z</time>
      </trkpt>
      <trkpt lat="41.79274" lon="9.21408">
        <ele>1056.63</ele>
        <time>2015-09-15T10:17:40Z</time>
      </trkpt>
      <trkpt lat="41.79279" lon="9.21417">
        <ele>1057.11</ele>
        <time>2015-09-15T10:17:54Z</time>
      </trkpt>
      <trkpt lat="41.79284" lon="9.21428">
        <ele>1058.07</ele>
        <time>2015-09-15T10:18:09Z</time>
      </trkpt>
      <trkpt lat="41.7929" lon="9.21442">
        <ele>1057.59</ele>
        <time>2015-09-15T10:18:24Z</time>
      </trkpt>
      <trkpt lat="41.79295" lon="9.21454">
        <ele>1057.59</ele>
        <time>2015-09-15T10:18:39Z</time>
      </trkpt>
      <trkpt lat="41.79299" lon="9.21458">
        <ele>1058.55</ele>
        <time>2015-09-15T10:18:53Z</time>
      </trkpt>
      <trkpt lat="41.79301" lon="9.21469">
        <ele>1059.51</ele>
        <time>2015-09-15T10:19:10Z</time>
      </trkpt>
      <trkpt lat="41.79307" lon="9.21482">
        <ele>1059.99</ele>
        <time>2015-09-15T10:19:28Z</time>
      </trkpt>
      <trkpt lat="41.79311" lon="9.21488">
        <ele>1060.95</ele>
        <time>2015-09-15T10:19:42Z</time>
      </trkpt>
      <trkpt lat="41.79307" lon="9.21496">
        <ele>1058.55</ele>
        <time>2015-09-15T10:19:58Z</time>
      </trkpt>
      <trkpt lat="41.79303" lon="9.21511">
        <ele>1057.59</ele>
        <time>2015-09-15T10:20:16Z</time>
      </trkpt>
      <trkpt lat="41.793" lon="9.2152">
        <ele>1057.11</ele>
        <time>2015-09-15T10:20:34Z</time>
      </trkpt>
      <trkpt lat="41.79299" lon="9.21529">
        <ele>1058.07</ele>
        <time>2015-09-15T10:20:49Z</time>
      </trkpt>
      <trkpt lat="41.79294" lon="9.21541">
        <ele>1058.55</ele>
        <time>2015-09-15T10:21:05Z</time>
      </trkpt>
      <trkpt lat="41.79292" lon="9.21551">
        <ele>1060.47</ele>
        <time>2015-09-15T10:21:20Z</time>
      </trkpt>
      <trkpt lat="41.79295" lon="9.21558">
        <ele>1062.39</ele>
        <time>2015-09-15T10:21:37Z</time>
      </trkpt>
      <trkpt lat="41.79294" lon="9.21563">
        <ele>1062.87</ele>
        <time>2015-09-15T10:21:43Z</time>
      </trkpt>
      <trkpt lat="41.79298" lon="9.21573">
        <ele>1062.87</ele>
        <time>2015-09-15T10:21:59Z</time>
      </trkpt>
      <trkpt lat="41.79301" lon="9.21585">
        <ele>1064.8</ele>
        <time>2015-09-15T10:22:15Z</time>
      </trkpt>
      <trkpt lat="41.79299" lon="9.21598">
        <ele>1065.76</ele>
        <time>2015-09-15T10:22:33Z</time>
      </trkpt>
      <trkpt lat="41.79298" lon="9.21611">
        <ele>1068.16</ele>
        <time>2015-09-15T10:22:53Z</time>
      </trkpt>
      <trkpt lat="41.79302" lon="9.2162">
        <ele>1070.08</ele>
        <time>2015-09-15T10:23:14Z</time>
      </trkpt>
      <trkpt lat="41.79307" lon="9.21626">
        <ele>1071.53</ele>
        <time>2015-09-15T10:23:29Z</time>
      </trkpt>
      <trkpt lat="41.79313" lon="9.21634">
        <ele>1072.97</ele>
        <time>2015-09-15T10:23:48Z</time>
      </trkpt>
      <trkpt lat="41.79319" lon="9.21643">
        <ele>1073.93</ele>
        <time>2015-09-15T10:24:06Z</time>
      </trkpt>
      <trkpt lat="41.79325" lon="9.21653">
        <ele>1075.85</ele>
        <time>2015-09-15T10:24:27Z</time>
      </trkpt>
      <trkpt lat="41.79341" lon="9.21663">
        <ele>1076.81</ele>
        <time>2015-09-15T10:24:50Z</time>
      </trkpt>
      <trkpt lat="41.79351" lon="9.21667">
        <ele>1078.26</ele>
        <time>2015-09-15T10:25:07Z</time>
      </trkpt>
      <trkpt lat="41.7936" lon="9.21669">
        <ele>1080.18</ele>
        <time>2015-09-15T10:25:26Z</time>
      </trkpt>
      <trkpt lat="41.79369" lon="9.21671">
        <ele>1081.14</ele>
        <time>2015-09-15T10:25:41Z</time>
      </trkpt>
      <trkpt lat="41.79376" lon="9.21677">
        <ele>1083.06</ele>
        <time>2015-09-15T10:25:59Z</time>
      </trkpt>
      <trkpt lat="41.79386" lon="9.21682">
        <ele>1084.99</ele>
        <time>2015-09-15T10:26:19Z</time>
      </trkpt>
      <trkpt lat="41.79392" lon="9.21689">
        <ele>1084.99</ele>
        <time>2015-09-15T10:26:34Z</time>
      </trkpt>
      <trkpt lat="41.794" lon="9.21699">
        <ele>1085.95</ele>
        <time>2015-09-15T10:26:52Z</time>
      </trkpt>
      <trkpt lat="41.79407" lon="9.21704">
        <ele>1086.43</ele>
        <time>2015-09-15T10:27:07Z</time>
      </trkpt>
      <trkpt lat="41.79414" lon="9.21708">
        <ele>1086.91</ele>
        <time>2015-09-15T10:27:21Z</time>
      </trkpt>
      <trkpt lat="41.7942" lon="9.21714">
        <ele>1087.87</ele>
        <time>2015-09-15T10:27:38Z</time>
      </trkpt>
      <trkpt lat="41.79426" lon="9.21714">
        <ele>1088.35</ele>
        <time>2015-09-15T10:28:04Z</time>
      </trkpt>
      <trkpt lat="41.79426" lon="9.21714">
        <ele>1088.35</ele>
        <time>2015-09-15T10:28:33Z</time>
      </trkpt>
      <trkpt lat="41.79424" lon="9.21712">
        <ele>1087.87</ele>
        <time>2015-09-15T10:28:48Z</time>
      </trkpt>
      <trkpt lat="41.79424" lon="9.2171">
        <ele>1088.83</ele>
        <time>2015-09-15T10:29:19Z</time>
      </trkpt>
      <trkpt lat="41.79422" lon="9.21712">
        <ele>1087.39</ele>
        <time>2015-09-15T10:29:42Z</time>
      </trkpt>
      <trkpt lat="41.79421" lon="9.21716">
        <ele>1086.91</ele>
        <time>2015-09-15T10:30:18Z</time>
      </trkpt>
      <trkpt lat="41.79418" lon="9.21715">
        <ele>1086.43</ele>
        <time>2015-09-15T10:30:56Z</time>
      </trkpt>
      <trkpt lat="41.79422" lon="9.21716">
        <ele>1086.43</ele>
        <time>2015-09-15T10:31:38Z</time>
      </trkpt>
      <trkpt lat="41.79418" lon="9.21711">
        <ele>1086.43</ele>
        <time>2015-09-15T10:32:18Z</time>
      </trkpt>
      <trkpt lat="41.7942" lon="9.21707">
        <ele>1087.87</ele>
        <time>2015-09-15T10:32:44Z</time>
      </trkpt>
      <trkpt lat="41.79418" lon="9.21708">
        <ele>1087.87</ele>
        <time>2015-09-15T10:33:26Z</time>
      </trkpt>
      <trkpt lat="41.7942" lon="9.21707">
        <ele>1087.87</ele>
        <time>2015-09-15T10:34:03Z</time>
      </trkpt>
      <trkpt lat="41.79421" lon="9.21709">
        <ele>1087.87</ele>
        <time>2015-09-15T10:34:40Z</time>
      </trkpt>
      <trkpt lat="41.79422" lon="9.21707">
        <ele>1087.87</ele>
        <time>2015-09-15T10:35:15Z</time>
      </trkpt>
      <trkpt lat="41.79418" lon="9.21709">
        <ele>1087.87</ele>
        <time>2015-09-15T10:35:57Z</time>
      </trkpt>
      <trkpt lat="41.79419" lon="9.21715">
        <ele>1087.87</ele>
        <time>2015-09-15T10:36:41Z</time>
      </trkpt>
      <trkpt lat="41.7942" lon="9.21712">
        <ele>1087.87</ele>
        <time>2015-09-15T10:37:18Z</time>
      </trkpt>
      <trkpt lat="41.79419" lon="9.21713">
        <ele>1087.87</ele>
        <time>2015-09-15T10:37:59Z</time>
      </trkpt>
      <trkpt lat="41.79422" lon="9.21713">
        <ele>1087.87</ele>
        <time>2015-09-15T10:38:34Z</time>
      </trkpt>
      <trkpt lat="41.7942" lon="9.21716">
        <ele>1088.35</ele>
        <time>2015-09-15T10:39:13Z</time>
      </trkpt>
      <trkpt lat="41.79422" lon="9.2171">
        <ele>1088.35</ele>
        <time>2015-09-15T10:39:52Z</time>
      </trkpt>
      <trkpt lat="41.79421" lon="9.21712">
        <ele>1087.87</ele>
        <time>2015-09-15T10:40:30Z</time>
      </trkpt>
      <trkpt lat="41.7942" lon="9.21712">
        <ele>1087.87</ele>
        <time>2015-09-15T10:41:11Z</time>
      </trkpt>
      <trkpt lat="41.79422" lon="9.21712">
        <ele>1087.87</ele>
        <time>2015-09-15T10:41:46Z</time>
      </trkpt>
      <trkpt lat="41.79422" lon="9.21713">
        <ele>1088.35</ele>
        <time>2015-09-15T10:42:18Z</time>
      </trkpt>
      <trkpt lat="41.79422" lon="9.21714">
        <ele>1088.35</ele>
        <time>2015-09-15T10:42:51Z</time>
      </trkpt>
      <trkpt lat="41.79423" lon="9.21714">
        <ele>1088.35</ele>
        <time>2015-09-15T10:43:28Z</time>
      </trkpt>
      <trkpt lat="41.79423" lon="9.21711">
        <ele>1086.91</ele>
        <time>2015-09-15T10:43:55Z</time>
      </trkpt>
      <trkpt lat="41.79423" lon="9.21719">
        <ele>1087.39</ele>
        <time>2015-09-15T10:44:17Z</time>
      </trkpt>
      <trkpt lat="41.79424" lon="9.21717">
        <ele>1087.39</ele>
        <time>2015-09-15T10:44:37Z</time>
      </trkpt>
      <trkpt lat="41.79422" lon="9.2172">
        <ele>1087.39</ele>
        <time>2015-09-15T10:45:02Z</time>
      </trkpt>
      <trkpt lat="41.79423" lon="9.21716">
        <ele>1087.39</ele>
        <time>2015-09-15T10:45:22Z</time>
      </trkpt>
      <trkpt lat="41.79424" lon="9.21719">
        <ele>1087.39</ele>
        <time>2015-09-15T10:45:41Z</time>
      </trkpt>
      <trkpt lat="41.79428" lon="9.21714">
        <ele>1087.39</ele>
        <time>2015-09-15T10:46:01Z</time>
      </trkpt>
      <trkpt lat="41.79426" lon="9.21714">
        <ele>1087.87</ele>
        <time>2015-09-15T10:46:11Z</time>
      </trkpt>
      <trkpt lat="41.79426" lon="9.21714">
        <ele>1087.87</ele>
        <time>2015-09-15T10:46:33Z</time>
      </trkpt>
      <trkpt lat="41.79426" lon="9.21714">
        <ele>1087.39</ele>
        <time>2015-09-15T10:46:57Z</time>
      </trkpt>
      <trkpt lat="41.79427" lon="9.21714">
        <ele>1087.39</ele>
        <time>2015-09-15T10:47:27Z</time>
      </trkpt>
      <trkpt lat="41.79439" lon="9.21723">
        <ele>1087.39</ele>
        <time>2015-09-15T10:47:46Z</time>
      </trkpt>
      <trkpt lat="41.79446" lon="9.2173">
        <ele>1086.91</ele>
        <time>2015-09-15T10:48:04Z</time>
      </trkpt>
      <trkpt lat="41.79457" lon="9.21735">
        <ele>1086.43</ele>
        <time>2015-09-15T10:48:22Z</time>
      </trkpt>
      <trkpt lat="41.79465" lon="9.2174">
        <ele>1085.47</ele>
        <time>2015-09-15T10:48:39Z</time>
      </trkpt>
      <trkpt lat="41.7947" lon="9.21748">
        <ele>1084.02</ele>
        <time>2015-09-15T10:48:56Z</time>
      </trkpt>
      <trkpt lat="41.7947" lon="9.21756">
        <ele>1084.5</ele>
        <time>2015-09-15T10:49:10Z</time>
      </trkpt>
      <trkpt lat="41.7947" lon="9.21758">
        <ele>1083.06</ele>
        <time>2015-09-15T10:49:12Z</time>
      </trkpt>
      <trkpt lat="41.79473" lon="9.21761">
        <ele>1084.02</ele>
        <time>2015-09-15T10:49:24Z</time>
      </trkpt>
      <trkpt lat="41.79476" lon="9.21769">
        <ele>1084.99</ele>
        <time>2015-09-15T10:49:40Z</time>
      </trkpt>
      <trkpt lat="41.79476" lon="9.21779">
        <ele>1086.43</ele>
        <time>2015-09-15T10:49:56Z</time>
      </trkpt>
      <trkpt lat="41.79477" lon="9.21787">
        <ele>1086.91</ele>
        <time>2015-09-15T10:50:11Z</time>
      </trkpt>
      <trkpt lat="41.79477" lon="9.21802">
        <ele>1085.47</ele>
        <time>2015-09-15T10:50:30Z</time>
      </trkpt>
      <trkpt lat="41.79477" lon="9.2181">
        <ele>1086.91</ele>
        <time>2015-09-15T10:50:50Z</time>
      </trkpt>
      <trkpt lat="41.79472" lon="9.21816">
        <ele>1085.95</ele>
        <time>2015-09-15T10:51:01Z</time>
      </trkpt>
      <trkpt lat="41.7947" lon="9.21833">
        <ele>1085.95</ele>
        <time>2015-09-15T10:51:19Z</time>
      </trkpt>
      <trkpt lat="41.79474" lon="9.21842">
        <ele>1085.95</ele>
        <time>2015-09-15T10:51:34Z</time>
      </trkpt>
      <trkpt lat="41.79478" lon="9.21852">
        <ele>1087.39</ele>
        <time>2015-09-15T10:51:49Z</time>
      </trkpt>
      <trkpt lat="41.7948" lon="9.21857">
        <ele>1087.87</ele>
        <time>2015-09-15T10:52:10Z</time>
      </trkpt>
      <trkpt lat="41.79485" lon="9.21866">
        <ele>1089.79</ele>
        <time>2015-09-15T10:52:28Z</time>
      </trkpt>
      <trkpt lat="41.79489" lon="9.21868">
        <ele>1092.2</ele>
        <time>2015-09-15T10:52:45Z</time>
      </trkpt>
      <trkpt lat="41.79492" lon="9.21874">
        <ele>1092.68</ele>
        <time>2015-09-15T10:52:59Z</time>
      </trkpt>
      <trkpt lat="41.79496" lon="9.2188">
        <ele>1094.12</ele>
        <time>2015-09-15T10:53:19Z</time>
      </trkpt>
      <trkpt lat="41.79501" lon="9.21885">
        <ele>1095.56</ele>
        <time>2015-09-15T10:53:37Z</time>
      </trkpt>
      <trkpt lat="41.79505" lon="9.2189">
        <ele>1096.04</ele>
        <time>2015-09-15T10:53:51Z</time>
      </trkpt>
      <trkpt lat="41.79509" lon="9.21898">
        <ele>1097.96</ele>
        <time>2015-09-15T10:54:10Z</time>
      </trkpt>
      <trkpt lat="41.79515" lon="9.21903">
        <ele>1099.89</ele>
        <time>2015-09-15T10:54:30Z</time>
      </trkpt>
      <trkpt lat="41.79519" lon="9.21903">
        <ele>1102.29</ele>
        <time>2015-09-15T10:54:48Z</time>
      </trkpt>
      <trkpt lat="41.79523" lon="9.219">
        <ele>1103.73</ele>
        <time>2015-09-15T10:55:11Z</time>
      </trkpt>
      <trkpt lat="41.79521" lon="9.21893">
        <ele>1105.65</ele>
        <time>2015-09-15T10:55:29Z</time>
      </trkpt>
      <trkpt lat="41.79524" lon="9.2189">
        <ele>1107.1</ele>
        <time>2015-09-15T10:55:49Z</time>
      </trkpt>
      <trkpt lat="41.79527" lon="9.21892">
        <ele>1109.5</ele>
        <time>2015-09-15T10:56:04Z</time>
      </trkpt>
      <trkpt lat="41.79529" lon="9.21896">
        <ele>1110.46</ele>
        <time>2015-09-15T10:56:23Z</time>
      </trkpt>
      <trkpt lat="41.79534" lon="9.21899">
        <ele>1113.34</ele>
        <time>2015-09-15T10:56:44Z</time>
      </trkpt>
      <trkpt lat="41.79537" lon="9.21902">
        <ele>1115.27</ele>
        <time>2015-09-15T10:57:01Z</time>
      </trkpt>
      <trkpt lat="41.79541" lon="9.21905">
        <ele>1116.71</ele>
        <time>2015-09-15T10:57:16Z</time>
      </trkpt>
      <trkpt lat="41.79548" lon="9.21911">
        <ele>1118.63</ele>
        <time>2015-09-15T10:57:37Z</time>
      </trkpt>
      <trkpt lat="41.79552" lon="9.21914">
        <ele>1120.55</ele>
        <time>2015-09-15T10:57:53Z</time>
      </trkpt>
      <trkpt lat="41.79555" lon="9.21918">
        <ele>1122</ele>
        <time>2015-09-15T10:58:08Z</time>
      </trkpt>
      <trkpt lat="41.79559" lon="9.21926">
        <ele>1122.96</ele>
        <time>2015-09-15T10:58:26Z</time>
      </trkpt>
      <trkpt lat="41.79563" lon="9.21931">
        <ele>1124.88</ele>
        <time>2015-09-15T10:58:43Z</time>
      </trkpt>
      <trkpt lat="41.79566" lon="9.21933">
        <ele>1126.32</ele>
        <time>2015-09-15T10:59:02Z</time>
      </trkpt>
      <trkpt lat="41.79573" lon="9.21934">
        <ele>1129.21</ele>
        <time>2015-09-15T10:59:21Z</time>
      </trkpt>
      <trkpt lat="41.79577" lon="9.21939">
        <ele>1130.65</ele>
        <time>2015-09-15T10:59:37Z</time>
      </trkpt>
      <trkpt lat="41.7958" lon="9.21939">
        <ele>1134.01</ele>
        <time>2015-09-15T10:59:54Z</time>
      </trkpt>
      <trkpt lat="41.79581" lon="9.21939">
        <ele>1134.01</ele>
        <time>2015-09-15T10:59:55Z</time>
      </trkpt>
      <trkpt lat="41.79582" lon="9.21944">
        <ele>1134.49</ele>
        <time>2015-09-15T11:00:10Z</time>
      </trkpt>
      <trkpt lat="41.79584" lon="9.2195">
        <ele>1135.45</ele>
        <time>2015-09-15T11:00:25Z</time>
      </trkpt>
      <trkpt lat="41.79589" lon="9.21956">
        <ele>1136.9</ele>
        <time>2015-09-15T11:00:42Z</time>
      </trkpt>
      <trkpt lat="41.79593" lon="9.21965">
        <ele>1139.3</ele>
        <time>2015-09-15T11:01:01Z</time>
      </trkpt>
      <trkpt lat="41.79595" lon="9.2197">
        <ele>1140.26</ele>
        <time>2015-09-15T11:01:17Z</time>
      </trkpt>
      <trkpt lat="41.79597" lon="9.21978">
        <ele>1140.26</ele>
        <time>2015-09-15T11:01:30Z</time>
      </trkpt>
      <trkpt lat="41.79598" lon="9.21982">
        <ele>1143.63</ele>
        <time>2015-09-15T11:01:47Z</time>
      </trkpt>
      <trkpt lat="41.796" lon="9.21987">
        <ele>1145.55</ele>
        <time>2015-09-15T11:02:02Z</time>
      </trkpt>
      <trkpt lat="41.79604" lon="9.2199">
        <ele>1147.47</ele>
        <time>2015-09-15T11:02:21Z</time>
      </trkpt>
      <trkpt lat="41.79607" lon="9.21996">
        <ele>1149.87</ele>
        <time>2015-09-15T11:02:39Z</time>
      </trkpt>
      <trkpt lat="41.79611" lon="9.22004">
        <ele>1151.32</ele>
        <time>2015-09-15T11:02:58Z</time>
      </trkpt>
      <trkpt lat="41.79616" lon="9.22008">
        <ele>1152.76</ele>
        <time>2015-09-15T11:03:13Z</time>
      </trkpt>
      <trkpt lat="41.79619" lon="9.22011">
        <ele>1153.72</ele>
        <time>2015-09-15T11:03:28Z</time>
      </trkpt>
      <trkpt lat="41.79624" lon="9.22017">
        <ele>1153.72</ele>
        <time>2015-09-15T11:03:41Z</time>
      </trkpt>
      <trkpt lat="41.79625" lon="9.22018">
        <ele>1152.76</ele>
        <time>2015-09-15T11:03:43Z</time>
      </trkpt>
      <trkpt lat="41.79634" lon="9.22027">
        <ele>1153.72</ele>
        <time>2015-09-15T11:03:59Z</time>
      </trkpt>
      <trkpt lat="41.79637" lon="9.22043">
        <ele>1153.72</ele>
        <time>2015-09-15T11:04:16Z</time>
      </trkpt>
      <trkpt lat="41.79641" lon="9.22053">
        <ele>1154.68</ele>
        <time>2015-09-15T11:04:31Z</time>
      </trkpt>
      <trkpt lat="41.79645" lon="9.22061">
        <ele>1156.12</ele>
        <time>2015-09-15T11:04:47Z</time>
      </trkpt>
      <trkpt lat="41.79648" lon="9.2207">
        <ele>1156.6</ele>
        <time>2015-09-15T11:05:04Z</time>
      </trkpt>
      <trkpt lat="41.79652" lon="9.22078">
        <ele>1158.53</ele>
        <time>2015-09-15T11:05:26Z</time>
      </trkpt>
      <trkpt lat="41.79659" lon="9.22081">
        <ele>1159.49</ele>
        <time>2015-09-15T11:05:48Z</time>
      </trkpt>
      <trkpt lat="41.79662" lon="9.22085">
        <ele>1161.89</ele>
        <time>2015-09-15T11:06:05Z</time>
      </trkpt>
      <trkpt lat="41.79664" lon="9.22094">
        <ele>1164.29</ele>
        <time>2015-09-15T11:06:25Z</time>
      </trkpt>
      <trkpt lat="41.79666" lon="9.22093">
        <ele>1167.18</ele>
        <time>2015-09-15T11:06:46Z</time>
      </trkpt>
      <trkpt lat="41.7967" lon="9.221">
        <ele>1168.14</ele>
        <time>2015-09-15T11:07:06Z</time>
      </trkpt>
      <trkpt lat="41.79673" lon="9.22111">
        <ele>1170.54</ele>
        <time>2015-09-15T11:07:29Z</time>
      </trkpt>
      <trkpt lat="41.79676" lon="9.22122">
        <ele>1171.98</ele>
        <time>2015-09-15T11:07:49Z</time>
      </trkpt>
      <trkpt lat="41.79682" lon="9.22133">
        <ele>1174.39</ele>
        <time>2015-09-15T11:08:09Z</time>
      </trkpt>
      <trkpt lat="41.79684" lon="9.22137">
        <ele>1175.83</ele>
        <time>2015-09-15T11:08:29Z</time>
      </trkpt>
      <trkpt lat="41.79684" lon="9.2214">
        <ele>1177.75</ele>
        <time>2015-09-15T11:08:46Z</time>
      </trkpt>
      <trkpt lat="41.79683" lon="9.22147">
        <ele>1180.16</ele>
        <time>2015-09-15T11:09:03Z</time>
      </trkpt>
      <trkpt lat="41.79685" lon="9.22164">
        <ele>1182.56</ele>
        <time>2015-09-15T11:09:25Z</time>
      </trkpt>
      <trkpt lat="41.79688" lon="9.2218">
        <ele>1185.44</ele>
        <time>2015-09-15T11:09:46Z</time>
      </trkpt>
      <trkpt lat="41.79692" lon="9.22186">
        <ele>1188.33</ele>
        <time>2015-09-15T11:10:05Z</time>
      </trkpt>
      <trkpt lat="41.79695" lon="9.222">
        <ele>1190.25</ele>
        <time>2015-09-15T11:10:33Z</time>
      </trkpt>
      <trkpt lat="41.79698" lon="9.22218">
        <ele>1191.69</ele>
        <time>2015-09-15T11:10:50Z</time>
      </trkpt>
      <trkpt lat="41.79694" lon="9.22225">
        <ele>1193.13</ele>
        <time>2015-09-15T11:11:07Z</time>
      </trkpt>
      <trkpt lat="41.79693" lon="9.22229">
        <ele>1193.61</ele>
        <time>2015-09-15T11:11:13Z</time>
      </trkpt>
      <trkpt lat="41.7969" lon="9.22241">
        <ele>1195.06</ele>
        <time>2015-09-15T11:11:29Z</time>
      </trkpt>
      <trkpt lat="41.79689" lon="9.22253">
        <ele>1196.98</ele>
        <time>2015-09-15T11:11:49Z</time>
      </trkpt>
      <trkpt lat="41.79686" lon="9.22269">
        <ele>1198.9</ele>
        <time>2015-09-15T11:12:05Z</time>
      </trkpt>
      <trkpt lat="41.79684" lon="9.22281">
        <ele>1200.34</ele>
        <time>2015-09-15T11:12:23Z</time>
      </trkpt>
      <trkpt lat="41.79677" lon="9.22306">
        <ele>1201.3</ele>
        <time>2015-09-15T11:12:43Z</time>
      </trkpt>
      <trkpt lat="41.79674" lon="9.22322">
        <ele>1203.23</ele>
        <time>2015-09-15T11:13:08Z</time>
      </trkpt>
      <trkpt lat="41.79676" lon="9.22328">
        <ele>1202.75</ele>
        <time>2015-09-15T11:13:28Z</time>
      </trkpt>
      <trkpt lat="41.79663" lon="9.22338">
        <ele>1204.67</ele>
        <time>2015-09-15T11:13:49Z</time>
      </trkpt>
      <trkpt lat="41.7966" lon="9.22342">
        <ele>1203.23</ele>
        <time>2015-09-15T11:13:52Z</time>
      </trkpt>
      <trkpt lat="41.79659" lon="9.22343">
        <ele>1204.67</ele>
        <time>2015-09-15T11:13:55Z</time>
      </trkpt>
      <trkpt lat="41.79639" lon="9.22353">
        <ele>1205.63</ele>
        <time>2015-09-15T11:14:12Z</time>
      </trkpt>
      <trkpt lat="41.7963" lon="9.22362">
        <ele>1206.11</ele>
        <time>2015-09-15T11:14:24Z</time>
      </trkpt>
      <trkpt lat="41.79621" lon="9.22372">
        <ele>1208.51</ele>
        <time>2015-09-15T11:14:41Z</time>
      </trkpt>
      <trkpt lat="41.79613" lon="9.22387">
        <ele>1209.96</ele>
        <time>2015-09-15T11:15:00Z</time>
      </trkpt>
      <trkpt lat="41.79603" lon="9.22399">
        <ele>1209.96</ele>
        <time>2015-09-15T11:15:18Z</time>
      </trkpt>
      <trkpt lat="41.79593" lon="9.22421">
        <ele>1211.88</ele>
        <time>2015-09-15T11:15:39Z</time>
      </trkpt>
      <trkpt lat="41.7959" lon="9.22431">
        <ele>1214.28</ele>
        <time>2015-09-15T11:15:55Z</time>
      </trkpt>
      <trkpt lat="41.79589" lon="9.22432">
        <ele>1214.28</ele>
        <time>2015-09-15T11:15:59Z</time>
      </trkpt>
      <trkpt lat="41.79588" lon="9.22445">
        <ele>1215.24</ele>
        <time>2015-09-15T11:16:15Z</time>
      </trkpt>
      <trkpt lat="41.79588" lon="9.22455">
        <ele>1216.69</ele>
        <time>2015-09-15T11:16:34Z</time>
      </trkpt>
      <trkpt lat="41.79588" lon="9.22457">
        <ele>1215.72</ele>
        <time>2015-09-15T11:16:42Z</time>
      </trkpt>
      <trkpt lat="41.79588" lon="9.22458">
        <ele>1216.69</ele>
        <time>2015-09-15T11:16:44Z</time>
      </trkpt>
      <trkpt lat="41.79587" lon="9.22456">
        <ele>1214.76</ele>
        <time>2015-09-15T11:16:48Z</time>
      </trkpt>
      <trkpt lat="41.79584" lon="9.22452">
        <ele>1216.21</ele>
        <time>2015-09-15T11:16:56Z</time>
      </trkpt>
      <trkpt lat="41.79579" lon="9.22431">
        <ele>1216.21</ele>
        <time>2015-09-15T11:17:15Z</time>
      </trkpt>
      <trkpt lat="41.79579" lon="9.2243">
        <ele>1216.21</ele>
        <time>2015-09-15T11:17:16Z</time>
      </trkpt>
      <trkpt lat="41.79577" lon="9.22419">
        <ele>1215.24</ele>
        <time>2015-09-15T11:17:25Z</time>
      </trkpt>
      <trkpt lat="41.79572" lon="9.22402">
        <ele>1214.28</ele>
        <time>2015-09-15T11:17:43Z</time>
      </trkpt>
      <trkpt lat="41.79566" lon="9.22378">
        <ele>1213.8</ele>
        <time>2015-09-15T11:18:04Z</time>
      </trkpt>
      <trkpt lat="41.79564" lon="9.2237">
        <ele>1213.32</ele>
        <time>2015-09-15T11:18:32Z</time>
      </trkpt>
      <trkpt lat="41.79566" lon="9.2237">
        <ele>1213.32</ele>
        <time>2015-09-15T11:18:51Z</time>
      </trkpt>
      <trkpt lat="41.7957" lon="9.22397">
        <ele>1215.72</ele>
        <time>2015-09-15T11:19:09Z</time>
      </trkpt>
      <trkpt lat="41.79575" lon="9.22409">
        <ele>1216.21</ele>
        <time>2015-09-15T11:19:21Z</time>
      </trkpt>
      <trkpt lat="41.79577" lon="9.2242">
        <ele>1216.21</ele>
        <time>2015-09-15T11:19:32Z</time>
      </trkpt>
      <trkpt lat="41.79577" lon="9.22422">
        <ele>1217.65</ele>
        <time>2015-09-15T11:19:34Z</time>
      </trkpt>
      <trkpt lat="41.79581" lon="9.22442">
        <ele>1216.21</ele>
        <time>2015-09-15T11:19:50Z</time>
      </trkpt>
      <trkpt lat="41.79584" lon="9.22457">
        <ele>1216.21</ele>
        <time>2015-09-15T11:20:10Z</time>
      </trkpt>
      <trkpt lat="41.79586" lon="9.22479">
        <ele>1216.21</ele>
        <time>2015-09-15T11:20:27Z</time>
      </trkpt>
      <trkpt lat="41.79588" lon="9.225">
        <ele>1216.21</ele>
        <time>2015-09-15T11:20:41Z</time>
      </trkpt>
      <trkpt lat="41.79587" lon="9.22532">
        <ele>1214.76</ele>
        <time>2015-09-15T11:21:04Z</time>
      </trkpt>
      <trkpt lat="41.79591" lon="9.22551">
        <ele>1212.84</ele>
        <time>2015-09-15T11:21:22Z</time>
      </trkpt>
      <trkpt lat="41.79591" lon="9.22576">
        <ele>1210.92</ele>
        <time>2015-09-15T11:21:41Z</time>
      </trkpt>
      <trkpt lat="41.7959" lon="9.22609">
        <ele>1208.51</ele>
        <time>2015-09-15T11:22:02Z</time>
      </trkpt>
      <trkpt lat="41.79585" lon="9.2265">
        <ele>1205.15</ele>
        <time>2015-09-15T11:22:27Z</time>
      </trkpt>
      <trkpt lat="41.79581" lon="9.22665">
        <ele>1204.67</ele>
        <time>2015-09-15T11:22:35Z</time>
      </trkpt>
      <trkpt lat="41.79561" lon="9.22708">
        <ele>1201.3</ele>
        <time>2015-09-15T11:22:58Z</time>
      </trkpt>
      <trkpt lat="41.79544" lon="9.22734">
        <ele>1197.94</ele>
        <time>2015-09-15T11:23:17Z</time>
      </trkpt>
      <trkpt lat="41.7953" lon="9.22764">
        <ele>1196.02</ele>
        <time>2015-09-15T11:23:34Z</time>
      </trkpt>
      <trkpt lat="41.79519" lon="9.22788">
        <ele>1192.65</ele>
        <time>2015-09-15T11:23:49Z</time>
      </trkpt>
      <trkpt lat="41.79515" lon="9.22817">
        <ele>1189.77</ele>
        <time>2015-09-15T11:24:12Z</time>
      </trkpt>
      <trkpt lat="41.79515" lon="9.22819">
        <ele>1191.21</ele>
        <time>2015-09-15T11:24:14Z</time>
      </trkpt>
      <trkpt lat="41.79501" lon="9.22843">
        <ele>1188.81</ele>
        <time>2015-09-15T11:24:37Z</time>
      </trkpt>
      <trkpt lat="41.79486" lon="9.22871">
        <ele>1186.4</ele>
        <time>2015-09-15T11:24:58Z</time>
      </trkpt>
      <trkpt lat="41.79487" lon="9.22876">
        <ele>1185.92</ele>
        <time>2015-09-15T11:25:21Z</time>
      </trkpt>
      <trkpt lat="41.79484" lon="9.22878">
        <ele>1185.92</ele>
        <time>2015-09-15T11:25:46Z</time>
      </trkpt>
      <trkpt lat="41.79484" lon="9.22877">
        <ele>1185.44</ele>
        <time>2015-09-15T11:26:14Z</time>
      </trkpt>
      <trkpt lat="41.79495" lon="9.22877">
        <ele>1184</ele>
        <time>2015-09-15T11:26:35Z</time>
      </trkpt>
      <trkpt lat="41.79505" lon="9.22876">
        <ele>1184</ele>
        <time>2015-09-15T11:26:56Z</time>
      </trkpt>
      <trkpt lat="41.79507" lon="9.22885">
        <ele>1183.52</ele>
        <time>2015-09-15T11:27:22Z</time>
      </trkpt>
      <trkpt lat="41.79509" lon="9.22881">
        <ele>1183.04</ele>
        <time>2015-09-15T11:27:47Z</time>
      </trkpt>
      <trkpt lat="41.79509" lon="9.22878">
        <ele>1183.04</ele>
        <time>2015-09-15T11:28:15Z</time>
      </trkpt>
      <trkpt lat="41.79507" lon="9.2288">
        <ele>1182.08</ele>
        <time>2015-09-15T11:28:48Z</time>
      </trkpt>
      <trkpt lat="41.79508" lon="9.2288">
        <ele>1183.52</ele>
        <time>2015-09-15T11:29:08Z</time>
      </trkpt>
      <trkpt lat="41.7951" lon="9.22883">
        <ele>1182.56</ele>
        <time>2015-09-15T11:29:41Z</time>
      </trkpt>
      <trkpt lat="41.79512" lon="9.22875">
        <ele>1183.52</ele>
        <time>2015-09-15T11:30:11Z</time>
      </trkpt>
      <trkpt lat="41.79517" lon="9.22874">
        <ele>1183.52</ele>
        <time>2015-09-15T11:30:41Z</time>
      </trkpt>
      <trkpt lat="41.79509" lon="9.22877">
        <ele>1183.04</ele>
        <time>2015-09-15T11:31:12Z</time>
      </trkpt>
      <trkpt lat="41.7951" lon="9.22885">
        <ele>1183.04</ele>
        <time>2015-09-15T11:31:36Z</time>
      </trkpt>
      <trkpt lat="41.7951" lon="9.2287">
        <ele>1182.56</ele>
        <time>2015-09-15T11:32:09Z</time>
      </trkpt>
      <trkpt lat="41.79511" lon="9.22883">
        <ele>1183.04</ele>
        <time>2015-09-15T11:32:48Z</time>
      </trkpt>
      <trkpt lat="41.79511" lon="9.22883">
        <ele>1183.04</ele>
        <time>2015-09-15T11:32:49Z</time>
      </trkpt>
      <trkpt lat="41.79508" lon="9.22879">
        <ele>1182.56</ele>
        <time>2015-09-15T11:33:21Z</time>
      </trkpt>
      <trkpt lat="41.79506" lon="9.22881">
        <ele>1182.56</ele>
        <time>2015-09-15T11:33:57Z</time>
      </trkpt>
      <trkpt lat="41.79505" lon="9.22879">
        <ele>1182.56</ele>
        <time>2015-09-15T11:34:28Z</time>
      </trkpt>
      <trkpt lat="41.79505" lon="9.22871">
        <ele>1183.52</ele>
        <time>2015-09-15T11:35:00Z</time>
      </trkpt>
      <trkpt lat="41.79505" lon="9.22879">
        <ele>1184</ele>
        <time>2015-09-15T11:35:30Z</time>
      </trkpt>
      <trkpt lat="41.79504" lon="9.22876">
        <ele>1184</ele>
        <time>2015-09-15T11:36:00Z</time>
      </trkpt>
      <trkpt lat="41.79507" lon="9.22876">
        <ele>1184.48</ele>
        <time>2015-09-15T11:36:35Z</time>
      </trkpt>
      <trkpt lat="41.79508" lon="9.22872">
        <ele>1184.96</ele>
        <time>2015-09-15T11:36:49Z</time>
      </trkpt>
      <trkpt lat="41.79502" lon="9.22888">
        <ele>1183.04</ele>
        <time>2015-09-15T11:38:39Z</time>
      </trkpt>
      <trkpt lat="41.79503" lon="9.22874">
        <ele>1184.48</ele>
        <time>2015-09-15T11:38:42Z</time>
      </trkpt>
      <trkpt lat="41.79503" lon="9.22886">
        <ele>1184.48</ele>
        <time>2015-09-15T11:39:16Z</time>
      </trkpt>
      <trkpt lat="41.79503" lon="9.22887">
        <ele>1183.52</ele>
        <time>2015-09-15T11:39:46Z</time>
      </trkpt>
      <trkpt lat="41.79507" lon="9.22875">
        <ele>1184.96</ele>
        <time>2015-09-15T11:40:19Z</time>
      </trkpt>
      <trkpt lat="41.79508" lon="9.22876">
        <ele>1185.92</ele>
        <time>2015-09-15T11:40:26Z</time>
      </trkpt>
    </trkseg>
  </trk>
</gpx>